<?xml version='1.0' encoding='UTF-8'?>
<gpx version="1.1" creator="https://www.komoot.de" xmlns="http://www.topografix.com/GPX/1/1" xmlns:xsi="http://www.w3.org/2001/XMLSchema-instance" xsi:schemaLocation="http://www.topografix.com/GPX/1/1 http://www.topografix.com/GPX/1/1/gpx.xsd">
  <metadata>
    <name>39_510WittnauFrick</name>
    <author>
      <link href="https://www.komoot.de">
        <text>komoot</text>
        <type>text/html</type>
      </link>
    </author>
  </metadata>
  <trk>
    <name>39_510WittnauFrick</name>
    <trkseg>
      <trkpt lat="47.540693" lon="7.871390">
        <ele>344.555708</ele>
        <time>2021-11-07T11:07:31.994Z</time>
      </trkpt>
      <trkpt lat="47.540463" lon="7.871584">
        <ele>344.555708</ele>
        <time>2021-11-07T11:07:37.315Z</time>
      </trkpt>
      <trkpt lat="47.540265" lon="7.871808">
        <ele>344.555708</ele>
        <time>2021-11-07T11:07:42.062Z</time>
      </trkpt>
      <trkpt lat="47.540216" lon="7.871851">
        <ele>344.555708</ele>
        <time>2021-11-07T11:07:43.347Z</time>
      </trkpt>
      <trkpt lat="47.540034" lon="7.871970">
        <ele>344.555708</ele>
        <time>2021-11-07T11:07:47.445Z</time>
      </trkpt>
      <trkpt lat="47.539930" lon="7.872041">
        <ele>344.555708</ele>
        <time>2021-11-07T11:07:49.556Z</time>
      </trkpt>
      <trkpt lat="47.539841" lon="7.872151">
        <ele>344.673744</ele>
        <time>2021-11-07T11:07:52.234Z</time>
      </trkpt>
      <trkpt lat="47.539784" lon="7.872250">
        <ele>344.776595</ele>
        <time>2021-11-07T11:07:53.907Z</time>
      </trkpt>
      <trkpt lat="47.539678" lon="7.872430">
        <ele>344.965404</ele>
        <time>2021-11-07T11:07:57.019Z</time>
      </trkpt>
      <trkpt lat="47.539332" lon="7.873178">
        <ele>345.682149</ele>
        <time>2021-11-07T11:08:09.839Z</time>
      </trkpt>
      <trkpt lat="47.539222" lon="7.873416">
        <ele>345.910144</ele>
        <time>2021-11-07T11:08:13.800Z</time>
      </trkpt>
      <trkpt lat="47.538278" lon="7.874319">
        <ele>347.200035</ele>
        <time>2021-11-07T11:08:33.790Z</time>
      </trkpt>
      <trkpt lat="47.537716" lon="7.874966">
        <ele>347.995223</ele>
        <time>2021-11-07T11:08:47.578Z</time>
      </trkpt>
      <trkpt lat="47.537504" lon="7.875092">
        <ele>348.250420</ele>
        <time>2021-11-07T11:08:51.968Z</time>
      </trkpt>
      <trkpt lat="47.537504" lon="7.875092">
        <ele>348.250420</ele>
        <time>2021-11-07T11:08:51.981Z</time>
      </trkpt>
      <trkpt lat="47.537504" lon="7.875092">
        <ele>348.250420</ele>
        <time>2021-11-07T11:08:51.981Z</time>
      </trkpt>
      <trkpt lat="47.536958" lon="7.875666">
        <ele>349.539372</ele>
        <time>2021-11-07T11:09:04.390Z</time>
      </trkpt>
      <trkpt lat="47.536412" lon="7.876239">
        <ele>351.522663</ele>
        <time>2021-11-07T11:09:16.793Z</time>
      </trkpt>
      <trkpt lat="47.535880" lon="7.877262">
        <ele>354.191140</ele>
        <time>2021-11-07T11:09:42.890Z</time>
      </trkpt>
      <trkpt lat="47.535851" lon="7.877319">
        <ele>354.449631</ele>
        <time>2021-11-07T11:09:44.640Z</time>
      </trkpt>
      <trkpt lat="47.535770" lon="7.877432">
        <ele>355.046535</ele>
        <time>2021-11-07T11:09:49.434Z</time>
      </trkpt>
      <trkpt lat="47.535635" lon="7.877484">
        <ele>355.794823</ele>
        <time>2021-11-07T11:09:53.667Z</time>
      </trkpt>
      <trkpt lat="47.535551" lon="7.877487">
        <ele>356.245567</ele>
        <time>2021-11-07T11:09:56.627Z</time>
      </trkpt>
      <trkpt lat="47.535322" lon="7.877590">
        <ele>357.529415</ele>
        <time>2021-11-07T11:10:07.984Z</time>
      </trkpt>
      <trkpt lat="47.535098" lon="7.877736">
        <ele>358.842249</ele>
        <time>2021-11-07T11:10:14.672Z</time>
      </trkpt>
      <trkpt lat="47.535088" lon="7.877742">
        <ele>358.900127</ele>
        <time>2021-11-07T11:10:15.458Z</time>
      </trkpt>
      <trkpt lat="47.534855" lon="7.878090">
        <ele>360.675183</ele>
        <time>2021-11-07T11:10:27.152Z</time>
      </trkpt>
      <trkpt lat="47.534778" lon="7.878270">
        <ele>361.446945</ele>
        <time>2021-11-07T11:10:35.167Z</time>
      </trkpt>
      <trkpt lat="47.534778" lon="7.878270">
        <ele>361.446945</ele>
        <time>2021-11-07T11:10:35.230Z</time>
      </trkpt>
      <trkpt lat="47.534778" lon="7.878270">
        <ele>361.446945</ele>
        <time>2021-11-07T11:10:35.326Z</time>
      </trkpt>
      <trkpt lat="47.534778" lon="7.878270">
        <ele>361.446945</ele>
        <time>2021-11-07T11:10:35.326Z</time>
      </trkpt>
      <trkpt lat="47.534870" lon="7.879042">
        <ele>364.140804</ele>
        <time>2021-11-07T11:10:45.150Z</time>
      </trkpt>
      <trkpt lat="47.534616" lon="7.879490">
        <ele>365.774782</ele>
        <time>2021-11-07T11:10:59.885Z</time>
      </trkpt>
      <trkpt lat="47.533892" lon="7.880353">
        <ele>369.619417</ele>
        <time>2021-11-07T11:11:29.200Z</time>
      </trkpt>
      <trkpt lat="47.533889" lon="7.880360">
        <ele>369.642575</ele>
        <time>2021-11-07T11:11:29.763Z</time>
      </trkpt>
      <trkpt lat="47.533606" lon="7.880961">
        <ele>371.212919</ele>
        <time>2021-11-07T11:11:41.115Z</time>
      </trkpt>
      <trkpt lat="47.533374" lon="7.881639">
        <ele>371.643317</ele>
        <time>2021-11-07T11:11:51.345Z</time>
      </trkpt>
      <trkpt lat="47.533137" lon="7.882502">
        <ele>372.170856</ele>
        <time>2021-11-07T11:12:03.130Z</time>
      </trkpt>
      <trkpt lat="47.533137" lon="7.882502">
        <ele>372.170856</ele>
        <time>2021-11-07T11:12:03.156Z</time>
      </trkpt>
      <trkpt lat="47.533137" lon="7.882502">
        <ele>372.170856</ele>
        <time>2021-11-07T11:12:03.156Z</time>
      </trkpt>
      <trkpt lat="47.532953" lon="7.883759">
        <ele>372.258658</ele>
        <time>2021-11-07T11:12:19.250Z</time>
      </trkpt>
      <trkpt lat="47.532768" lon="7.885016">
        <ele>371.425965</ele>
        <time>2021-11-07T11:12:35.348Z</time>
      </trkpt>
      <trkpt lat="47.532584" lon="7.886273">
        <ele>370.441071</ele>
        <time>2021-11-07T11:12:51.443Z</time>
      </trkpt>
      <trkpt lat="47.532584" lon="7.886273">
        <ele>370.441071</ele>
        <time>2021-11-07T11:12:51.461Z</time>
      </trkpt>
      <trkpt lat="47.532584" lon="7.886273">
        <ele>370.441071</ele>
        <time>2021-11-07T11:12:51.461Z</time>
      </trkpt>
      <trkpt lat="47.532392" lon="7.887151">
        <ele>369.521525</ele>
        <time>2021-11-07T11:13:03.010Z</time>
      </trkpt>
      <trkpt lat="47.532199" lon="7.888029">
        <ele>368.601520</ele>
        <time>2021-11-07T11:13:14.565Z</time>
      </trkpt>
      <trkpt lat="47.532007" lon="7.888908">
        <ele>367.910027</ele>
        <time>2021-11-07T11:13:26.125Z</time>
      </trkpt>
      <trkpt lat="47.531843" lon="7.889349">
        <ele>367.620841</ele>
        <time>2021-11-07T11:13:30.206Z</time>
      </trkpt>
      <trkpt lat="47.531593" lon="7.889726">
        <ele>367.317322</ele>
        <time>2021-11-07T11:13:34.545Z</time>
      </trkpt>
      <trkpt lat="47.531560" lon="7.889776">
        <ele>367.277160</ele>
        <time>2021-11-07T11:13:35.260Z</time>
      </trkpt>
      <trkpt lat="47.531265" lon="7.889937">
        <ele>367.009702</ele>
        <time>2021-11-07T11:13:39.224Z</time>
      </trkpt>
      <trkpt lat="47.531265" lon="7.889937">
        <ele>367.009702</ele>
        <time>2021-11-07T11:13:39.281Z</time>
      </trkpt>
      <trkpt lat="47.531076" lon="7.890029">
        <ele>366.840455</ele>
        <time>2021-11-07T11:13:42.123Z</time>
      </trkpt>
      <trkpt lat="47.530606" lon="7.890373">
        <ele>366.938606</ele>
        <time>2021-11-07T11:13:49.963Z</time>
      </trkpt>
      <trkpt lat="47.530512" lon="7.890477">
        <ele>367.021579</ele>
        <time>2021-11-07T11:13:51.994Z</time>
      </trkpt>
      <trkpt lat="47.530322" lon="7.890690">
        <ele>367.190092</ele>
        <time>2021-11-07T11:13:55.597Z</time>
      </trkpt>
      <trkpt lat="47.530008" lon="7.891156">
        <ele>367.504441</ele>
        <time>2021-11-07T11:14:03.717Z</time>
      </trkpt>
      <trkpt lat="47.530008" lon="7.891156">
        <ele>367.504441</ele>
        <time>2021-11-07T11:14:03.726Z</time>
      </trkpt>
      <trkpt lat="47.530008" lon="7.891156">
        <ele>367.504441</ele>
        <time>2021-11-07T11:14:03.726Z</time>
      </trkpt>
      <trkpt lat="47.529366" lon="7.891805">
        <ele>368.137365</ele>
        <time>2021-11-07T11:14:18.132Z</time>
      </trkpt>
      <trkpt lat="47.528724" lon="7.892454">
        <ele>369.192235</ele>
        <time>2021-11-07T11:14:32.538Z</time>
      </trkpt>
      <trkpt lat="47.528724" lon="7.892454">
        <ele>369.192235</ele>
        <time>2021-11-07T11:14:32.540Z</time>
      </trkpt>
      <trkpt lat="47.528105" lon="7.892557">
        <ele>370.037560</ele>
        <time>2021-11-07T11:14:44.085Z</time>
      </trkpt>
      <trkpt lat="47.527486" lon="7.892660">
        <ele>371.244119</ele>
        <time>2021-11-07T11:14:55.627Z</time>
      </trkpt>
      <trkpt lat="47.527486" lon="7.892660">
        <ele>371.244119</ele>
        <time>2021-11-07T11:14:55.638Z</time>
      </trkpt>
      <trkpt lat="47.527486" lon="7.892660">
        <ele>371.244119</ele>
        <time>2021-11-07T11:14:55.638Z</time>
      </trkpt>
      <trkpt lat="47.526999" lon="7.893338">
        <ele>372.836100</ele>
        <time>2021-11-07T11:15:08.028Z</time>
      </trkpt>
      <trkpt lat="47.526511" lon="7.894015">
        <ele>374.428725</ele>
        <time>2021-11-07T11:15:20.425Z</time>
      </trkpt>
      <trkpt lat="47.526504" lon="7.894030">
        <ele>374.458050</ele>
        <time>2021-11-07T11:15:20.932Z</time>
      </trkpt>
      <trkpt lat="47.526451" lon="7.893983">
        <ele>374.605185</ele>
        <time>2021-11-07T11:15:22.228Z</time>
      </trkpt>
      <trkpt lat="47.526401" lon="7.893964">
        <ele>374.725978</ele>
        <time>2021-11-07T11:15:23.156Z</time>
      </trkpt>
      <trkpt lat="47.526335" lon="7.893960">
        <ele>374.874772</ele>
        <time>2021-11-07T11:15:24.891Z</time>
      </trkpt>
      <trkpt lat="47.526335" lon="7.893960">
        <ele>374.874772</ele>
        <time>2021-11-07T11:15:24.932Z</time>
      </trkpt>
      <trkpt lat="47.526335" lon="7.893960">
        <ele>374.874772</ele>
        <time>2021-11-07T11:15:24.935Z</time>
      </trkpt>
      <trkpt lat="47.526257" lon="7.894278">
        <ele>375.389387</ele>
        <time>2021-11-07T11:15:31.379Z</time>
      </trkpt>
      <trkpt lat="47.526095" lon="7.894533">
        <ele>375.921932</ele>
        <time>2021-11-07T11:15:37.315Z</time>
      </trkpt>
      <trkpt lat="47.525725" lon="7.895110">
        <ele>377.132265</ele>
        <time>2021-11-07T11:15:48.908Z</time>
      </trkpt>
      <trkpt lat="47.525621" lon="7.895241">
        <ele>377.439812</ele>
        <time>2021-11-07T11:15:52.624Z</time>
      </trkpt>
      <trkpt lat="47.525603" lon="7.895265">
        <ele>377.494371</ele>
        <time>2021-11-07T11:15:54.091Z</time>
      </trkpt>
      <trkpt lat="47.525631" lon="7.895442">
        <ele>377.770889</ele>
        <time>2021-11-07T11:15:57.085Z</time>
      </trkpt>
      <trkpt lat="47.525631" lon="7.895583">
        <ele>377.985359</ele>
        <time>2021-11-07T11:15:58.239Z</time>
      </trkpt>
      <trkpt lat="47.525622" lon="7.895944">
        <ele>378.534838</ele>
        <time>2021-11-07T11:16:05.776Z</time>
      </trkpt>
      <trkpt lat="47.525590" lon="7.896117">
        <ele>378.751625</ele>
        <time>2021-11-07T11:16:07.269Z</time>
      </trkpt>
      <trkpt lat="47.525520" lon="7.896330">
        <ele>378.813592</ele>
        <time>2021-11-07T11:16:11.976Z</time>
      </trkpt>
      <trkpt lat="47.525518" lon="7.896336">
        <ele>378.815342</ele>
        <time>2021-11-07T11:16:12.254Z</time>
      </trkpt>
      <trkpt lat="47.524834" lon="7.897636">
        <ele>379.246456</ele>
        <time>2021-11-07T11:16:28.834Z</time>
      </trkpt>
      <trkpt lat="47.524617" lon="7.898216">
        <ele>379.419913</ele>
        <time>2021-11-07T11:16:35.021Z</time>
      </trkpt>
      <trkpt lat="47.524592" lon="7.898289">
        <ele>379.441739</ele>
        <time>2021-11-07T11:16:35.655Z</time>
      </trkpt>
      <trkpt lat="47.524360" lon="7.898951">
        <ele>379.654579</ele>
        <time>2021-11-07T11:16:42.593Z</time>
      </trkpt>
      <trkpt lat="47.524309" lon="7.899115">
        <ele>379.706104</ele>
        <time>2021-11-07T11:16:44.540Z</time>
      </trkpt>
      <trkpt lat="47.523896" lon="7.900001">
        <ele>380.013332</ele>
        <time>2021-11-07T11:16:56.456Z</time>
      </trkpt>
      <trkpt lat="47.523881" lon="7.900022">
        <ele>380.022055</ele>
        <time>2021-11-07T11:16:56.919Z</time>
      </trkpt>
      <trkpt lat="47.523861" lon="7.900049">
        <ele>380.033492</ele>
        <time>2021-11-07T11:16:57.410Z</time>
      </trkpt>
      <trkpt lat="47.523890" lon="7.900131">
        <ele>380.059908</ele>
        <time>2021-11-07T11:16:58.298Z</time>
      </trkpt>
      <trkpt lat="47.523945" lon="7.900256">
        <ele>380.102483</ele>
        <time>2021-11-07T11:16:59.943Z</time>
      </trkpt>
      <trkpt lat="47.523989" lon="7.900340">
        <ele>380.132821</ele>
        <time>2021-11-07T11:17:01.014Z</time>
      </trkpt>
      <trkpt lat="47.523957" lon="7.900371">
        <ele>380.148980</ele>
        <time>2021-11-07T11:17:01.727Z</time>
      </trkpt>
      <trkpt lat="47.523957" lon="7.900371">
        <ele>380.148980</ele>
        <time>2021-11-07T11:17:01.730Z</time>
      </trkpt>
      <trkpt lat="47.523957" lon="7.900371">
        <ele>380.148980</ele>
        <time>2021-11-07T11:17:01.757Z</time>
      </trkpt>
      <trkpt lat="47.523878" lon="7.900445">
        <ele>380.188484</ele>
        <time>2021-11-07T11:17:03.904Z</time>
      </trkpt>
      <trkpt lat="47.523739" lon="7.900557">
        <ele>380.645740</ele>
        <time>2021-11-07T11:17:06.880Z</time>
      </trkpt>
      <trkpt lat="47.523648" lon="7.900606">
        <ele>380.959745</ele>
        <time>2021-11-07T11:17:09.061Z</time>
      </trkpt>
      <trkpt lat="47.523620" lon="7.900698">
        <ele>381.180730</ele>
        <time>2021-11-07T11:17:11.016Z</time>
      </trkpt>
      <trkpt lat="47.523567" lon="7.900820">
        <ele>381.498404</ele>
        <time>2021-11-07T11:17:13.129Z</time>
      </trkpt>
      <trkpt lat="47.523433" lon="7.901043">
        <ele>382.152092</ele>
        <time>2021-11-07T11:17:18.367Z</time>
      </trkpt>
      <trkpt lat="47.523340" lon="7.901197">
        <ele>382.604515</ele>
        <time>2021-11-07T11:17:22.413Z</time>
      </trkpt>
      <trkpt lat="47.523180" lon="7.901399">
        <ele>383.286348</ele>
        <time>2021-11-07T11:17:28.624Z</time>
      </trkpt>
      <trkpt lat="47.523036" lon="7.901580">
        <ele>383.898863</ele>
        <time>2021-11-07T11:17:34.111Z</time>
      </trkpt>
      <trkpt lat="47.522688" lon="7.901843">
        <ele>385.165856</ele>
        <time>2021-11-07T11:17:46.428Z</time>
      </trkpt>
      <trkpt lat="47.522554" lon="7.901999">
        <ele>385.718611</ele>
        <time>2021-11-07T11:17:52.745Z</time>
      </trkpt>
      <trkpt lat="47.522260" lon="7.902356">
        <ele>387.043173</ele>
        <time>2021-11-07T11:18:05.119Z</time>
      </trkpt>
      <trkpt lat="47.522132" lon="7.902476">
        <ele>387.583267</ele>
        <time>2021-11-07T11:18:09.681Z</time>
      </trkpt>
      <trkpt lat="47.522065" lon="7.902526">
        <ele>387.850745</ele>
        <time>2021-11-07T11:18:11.872Z</time>
      </trkpt>
      <trkpt lat="47.522057" lon="7.902538">
        <ele>387.891341</ele>
        <time>2021-11-07T11:18:12.410Z</time>
      </trkpt>
      <trkpt lat="47.522038" lon="7.902562">
        <ele>387.980374</ele>
        <time>2021-11-07T11:18:13.354Z</time>
      </trkpt>
      <trkpt lat="47.522013" lon="7.902637">
        <ele>388.181736</ele>
        <time>2021-11-07T11:18:15.455Z</time>
      </trkpt>
      <trkpt lat="47.521792" lon="7.903347">
        <ele>390.063919</ele>
        <time>2021-11-07T11:18:30.767Z</time>
      </trkpt>
      <trkpt lat="47.521297" lon="7.904312">
        <ele>392.662237</ele>
        <time>2021-11-07T11:18:52.735Z</time>
      </trkpt>
      <trkpt lat="47.521021" lon="7.905043">
        <ele>393.485593</ele>
        <time>2021-11-07T11:19:05.473Z</time>
      </trkpt>
      <trkpt lat="47.521021" lon="7.905043">
        <ele>393.485593</ele>
        <time>2021-11-07T11:19:05.485Z</time>
      </trkpt>
      <trkpt lat="47.521021" lon="7.905043">
        <ele>393.485593</ele>
        <time>2021-11-07T11:19:05.485Z</time>
      </trkpt>
      <trkpt lat="47.520773" lon="7.906180">
        <ele>394.660266</ele>
        <time>2021-11-07T11:19:20.439Z</time>
      </trkpt>
      <trkpt lat="47.520526" lon="7.907317">
        <ele>395.322413</ele>
        <time>2021-11-07T11:19:35.391Z</time>
      </trkpt>
      <trkpt lat="47.520551" lon="7.907422">
        <ele>395.359463</ele>
        <time>2021-11-07T11:19:36.632Z</time>
      </trkpt>
      <trkpt lat="47.520733" lon="7.907655">
        <ele>395.478017</ele>
        <time>2021-11-07T11:19:40.602Z</time>
      </trkpt>
      <trkpt lat="47.520734" lon="7.907681">
        <ele>395.486683</ele>
        <time>2021-11-07T11:19:40.876Z</time>
      </trkpt>
      <trkpt lat="47.520738" lon="7.907839">
        <ele>395.539299</ele>
        <time>2021-11-07T11:19:42.627Z</time>
      </trkpt>
      <trkpt lat="47.520493" lon="7.908683">
        <ele>395.845010</ele>
        <time>2021-11-07T11:19:52.559Z</time>
      </trkpt>
      <trkpt lat="47.520198" lon="7.909961">
        <ele>396.563012</ele>
        <time>2021-11-07T11:20:08.204Z</time>
      </trkpt>
      <trkpt lat="47.519997" lon="7.910833">
        <ele>397.106417</ele>
        <time>2021-11-07T11:20:19.775Z</time>
      </trkpt>
      <trkpt lat="47.519891" lon="7.911129">
        <ele>397.304013</ele>
        <time>2021-11-07T11:20:24.556Z</time>
      </trkpt>
      <trkpt lat="47.519751" lon="7.911452">
        <ele>397.535100</ele>
        <time>2021-11-07T11:20:29.570Z</time>
      </trkpt>
      <trkpt lat="47.519720" lon="7.911522">
        <ele>397.602551</ele>
        <time>2021-11-07T11:20:30.813Z</time>
      </trkpt>
      <trkpt lat="47.519421" lon="7.912098">
        <ele>398.187950</ele>
        <time>2021-11-07T11:20:40.547Z</time>
      </trkpt>
      <trkpt lat="47.518961" lon="7.912713">
        <ele>398.927424</ele>
        <time>2021-11-07T11:20:53.315Z</time>
      </trkpt>
      <trkpt lat="47.517688" lon="7.914418">
        <ele>400.657778</ele>
        <time>2021-11-07T11:21:24.997Z</time>
      </trkpt>
      <trkpt lat="47.517281" lon="7.915238">
        <ele>401.279218</ele>
        <time>2021-11-07T11:21:37.674Z</time>
      </trkpt>
      <trkpt lat="47.517140" lon="7.915259">
        <ele>401.406331</ele>
        <time>2021-11-07T11:21:40.131Z</time>
      </trkpt>
      <trkpt lat="47.516806" lon="7.914896">
        <ele>401.777696</ele>
        <time>2021-11-07T11:21:47.613Z</time>
      </trkpt>
      <trkpt lat="47.516748" lon="7.914873">
        <ele>401.831515</ele>
        <time>2021-11-07T11:21:48.776Z</time>
      </trkpt>
      <trkpt lat="47.516662" lon="7.914835">
        <ele>401.911959</ele>
        <time>2021-11-07T11:21:50.555Z</time>
      </trkpt>
      <trkpt lat="47.516626" lon="7.914830">
        <ele>401.944368</ele>
        <time>2021-11-07T11:21:51.245Z</time>
      </trkpt>
      <trkpt lat="47.516590" lon="7.914840">
        <ele>401.977199</ele>
        <time>2021-11-07T11:21:51.839Z</time>
      </trkpt>
      <trkpt lat="47.516569" lon="7.914864">
        <ele>402.000977</ele>
        <time>2021-11-07T11:21:52.374Z</time>
      </trkpt>
      <trkpt lat="47.516544" lon="7.914936">
        <ele>402.049985</ele>
        <time>2021-11-07T11:21:53.221Z</time>
      </trkpt>
      <trkpt lat="47.516391" lon="7.915243">
        <ele>402.280952</ele>
        <time>2021-11-07T11:21:58.013Z</time>
      </trkpt>
      <trkpt lat="47.515014" lon="7.917030">
        <ele>404.075989</ele>
        <time>2021-11-07T11:22:31.790Z</time>
      </trkpt>
      <trkpt lat="47.514635" lon="7.917349">
        <ele>404.525667</ele>
        <time>2021-11-07T11:22:39.908Z</time>
      </trkpt>
      <trkpt lat="47.514561" lon="7.917409">
        <ele>404.612691</ele>
        <time>2021-11-07T11:22:41.800Z</time>
      </trkpt>
      <trkpt lat="47.514255" lon="7.917714">
        <ele>405.157905</ele>
        <time>2021-11-07T11:22:49.269Z</time>
      </trkpt>
      <trkpt lat="47.513378" lon="7.918393">
        <ele>406.891559</ele>
        <time>2021-11-07T11:23:10.996Z</time>
      </trkpt>
      <trkpt lat="47.513160" lon="7.918764">
        <ele>407.473379</ele>
        <time>2021-11-07T11:23:18.497Z</time>
      </trkpt>
      <trkpt lat="47.513058" lon="7.918896">
        <ele>407.710692</ele>
        <time>2021-11-07T11:23:21.653Z</time>
      </trkpt>
      <trkpt lat="47.512938" lon="7.919052">
        <ele>407.984021</ele>
        <time>2021-11-07T11:23:25.432Z</time>
      </trkpt>
      <trkpt lat="47.512664" lon="7.919306">
        <ele>408.506233</ele>
        <time>2021-11-07T11:23:32.758Z</time>
      </trkpt>
      <trkpt lat="47.512255" lon="7.919538">
        <ele>409.213749</ele>
        <time>2021-11-07T11:23:42.443Z</time>
      </trkpt>
      <trkpt lat="47.512085" lon="7.919732">
        <ele>409.560470</ele>
        <time>2021-11-07T11:23:47.067Z</time>
      </trkpt>
      <trkpt lat="47.511964" lon="7.919989">
        <ele>409.902277</ele>
        <time>2021-11-07T11:23:51.604Z</time>
      </trkpt>
      <trkpt lat="47.511883" lon="7.920133">
        <ele>410.106741</ele>
        <time>2021-11-07T11:23:54.258Z</time>
      </trkpt>
      <trkpt lat="47.511632" lon="7.920105">
        <ele>410.513348</ele>
        <time>2021-11-07T11:24:00.908Z</time>
      </trkpt>
      <trkpt lat="47.511613" lon="7.920183">
        <ele>410.603818</ele>
        <time>2021-11-07T11:24:01.824Z</time>
      </trkpt>
      <trkpt lat="47.511186" lon="7.920984">
        <ele>411.285952</ele>
        <time>2021-11-07T11:24:14.525Z</time>
      </trkpt>
      <trkpt lat="47.511067" lon="7.921207">
        <ele>411.448064</ele>
        <time>2021-11-07T11:24:17.845Z</time>
      </trkpt>
      <trkpt lat="47.511052" lon="7.921232">
        <ele>411.467138</ele>
        <time>2021-11-07T11:24:18.289Z</time>
      </trkpt>
      <trkpt lat="47.510872" lon="7.921477">
        <ele>411.673628</ele>
        <time>2021-11-07T11:24:22.612Z</time>
      </trkpt>
      <trkpt lat="47.510639" lon="7.921796">
        <ele>411.941639</ele>
        <time>2021-11-07T11:24:28.123Z</time>
      </trkpt>
      <trkpt lat="47.510273" lon="7.922111">
        <ele>412.299161</ele>
        <time>2021-11-07T11:24:35.241Z</time>
      </trkpt>
      <trkpt lat="47.509688" lon="7.922616">
        <ele>413.401603</ele>
        <time>2021-11-07T11:24:48.611Z</time>
      </trkpt>
      <trkpt lat="47.509615" lon="7.922742">
        <ele>413.589580</ele>
        <time>2021-11-07T11:24:51.631Z</time>
      </trkpt>
      <trkpt lat="47.509583" lon="7.922962">
        <ele>413.844417</ele>
        <time>2021-11-07T11:24:54.414Z</time>
      </trkpt>
      <trkpt lat="47.509550" lon="7.923245">
        <ele>414.169624</ele>
        <time>2021-11-07T11:24:59.183Z</time>
      </trkpt>
      <trkpt lat="47.509595" lon="7.923295">
        <ele>414.263949</ele>
        <time>2021-11-07T11:25:00.285Z</time>
      </trkpt>
      <trkpt lat="47.509668" lon="7.923400">
        <ele>414.434579</ele>
        <time>2021-11-07T11:25:02.192Z</time>
      </trkpt>
      <trkpt lat="47.509817" lon="7.923703">
        <ele>414.858988</ele>
        <time>2021-11-07T11:25:08.376Z</time>
      </trkpt>
      <trkpt lat="47.509869" lon="7.923971">
        <ele>415.174741</ele>
        <time>2021-11-07T11:25:12.243Z</time>
      </trkpt>
      <trkpt lat="47.509886" lon="7.924134">
        <ele>415.366443</ele>
        <time>2021-11-07T11:25:15.591Z</time>
      </trkpt>
      <trkpt lat="47.509806" lon="7.924174">
        <ele>415.559133</ele>
        <time>2021-11-07T11:25:17.345Z</time>
      </trkpt>
      <trkpt lat="47.509676" lon="7.924247">
        <ele>415.876414</ele>
        <time>2021-11-07T11:25:20.222Z</time>
      </trkpt>
      <trkpt lat="47.509605" lon="7.924290">
        <ele>416.051468</ele>
        <time>2021-11-07T11:25:22.217Z</time>
      </trkpt>
      <trkpt lat="47.509572" lon="7.924311">
        <ele>416.133435</ele>
        <time>2021-11-07T11:25:23.475Z</time>
      </trkpt>
      <trkpt lat="47.509223" lon="7.924628">
        <ele>417.067796</ele>
        <time>2021-11-07T11:25:33.554Z</time>
      </trkpt>
      <trkpt lat="47.509032" lon="7.924863">
        <ele>417.634529</ele>
        <time>2021-11-07T11:25:39.449Z</time>
      </trkpt>
      <trkpt lat="47.509016" lon="7.924882">
        <ele>417.681335</ele>
        <time>2021-11-07T11:25:40.046Z</time>
      </trkpt>
      <trkpt lat="47.508667" lon="7.925295">
        <ele>418.700916</ele>
        <time>2021-11-07T11:25:51.291Z</time>
      </trkpt>
      <trkpt lat="47.508355" lon="7.925609">
        <ele>419.577047</ele>
        <time>2021-11-07T11:25:59.664Z</time>
      </trkpt>
      <trkpt lat="47.508106" lon="7.925799">
        <ele>420.305092</ele>
        <time>2021-11-07T11:26:05.979Z</time>
      </trkpt>
      <trkpt lat="47.508002" lon="7.925879">
        <ele>420.609694</ele>
        <time>2021-11-07T11:26:08.366Z</time>
      </trkpt>
      <trkpt lat="47.507856" lon="7.925990">
        <ele>421.036254</ele>
        <time>2021-11-07T11:26:12.223Z</time>
      </trkpt>
      <trkpt lat="47.506112" lon="7.927414">
        <ele>427.005349</ele>
        <time>2021-11-07T11:27:05.218Z</time>
      </trkpt>
      <trkpt lat="47.505881" lon="7.927601">
        <ele>427.949710</ele>
        <time>2021-11-07T11:27:13.913Z</time>
      </trkpt>
      <trkpt lat="47.505868" lon="7.927611">
        <ele>428.002259</ele>
        <time>2021-11-07T11:27:14.377Z</time>
      </trkpt>
      <trkpt lat="47.505814" lon="7.927657">
        <ele>428.225728</ele>
        <time>2021-11-07T11:27:16.933Z</time>
      </trkpt>
      <trkpt lat="47.505253" lon="7.928170">
        <ele>430.586165</ele>
        <time>2021-11-07T11:27:37.602Z</time>
      </trkpt>
      <trkpt lat="47.504799" lon="7.928777">
        <ele>431.947495</ele>
        <time>2021-11-07T11:27:53.002Z</time>
      </trkpt>
      <trkpt lat="47.504724" lon="7.928871">
        <ele>432.166174</ele>
        <time>2021-11-07T11:27:56.967Z</time>
      </trkpt>
      <trkpt lat="47.504650" lon="7.928941">
        <ele>432.361593</ele>
        <time>2021-11-07T11:27:59.501Z</time>
      </trkpt>
      <trkpt lat="47.504005" lon="7.929312">
        <ele>433.901430</ele>
        <time>2021-11-07T11:28:13.942Z</time>
      </trkpt>
      <trkpt lat="47.503815" lon="7.929426">
        <ele>434.357640</ele>
        <time>2021-11-07T11:28:16.901Z</time>
      </trkpt>
      <trkpt lat="47.503598" lon="7.929585">
        <ele>434.694492</ele>
        <time>2021-11-07T11:28:22.177Z</time>
      </trkpt>
      <trkpt lat="47.503528" lon="7.929650">
        <ele>434.760704</ele>
        <time>2021-11-07T11:28:23.249Z</time>
      </trkpt>
      <trkpt lat="47.503485" lon="7.929688">
        <ele>434.800832</ele>
        <time>2021-11-07T11:28:24.761Z</time>
      </trkpt>
      <trkpt lat="47.503014" lon="7.930220">
        <ele>435.275559</ele>
        <time>2021-11-07T11:28:34.673Z</time>
      </trkpt>
      <trkpt lat="47.502761" lon="7.930610">
        <ele>435.568246</ele>
        <time>2021-11-07T11:28:41.026Z</time>
      </trkpt>
      <trkpt lat="47.502613" lon="7.930856">
        <ele>435.746561</ele>
        <time>2021-11-07T11:28:44.824Z</time>
      </trkpt>
      <trkpt lat="47.502400" lon="7.931256">
        <ele>436.022252</ele>
        <time>2021-11-07T11:28:51.628Z</time>
      </trkpt>
      <trkpt lat="47.502023" lon="7.932158">
        <ele>436.554783</ele>
        <time>2021-11-07T11:29:04.614Z</time>
      </trkpt>
      <trkpt lat="47.501901" lon="7.932351">
        <ele>436.687487</ele>
        <time>2021-11-07T11:29:08.373Z</time>
      </trkpt>
      <trkpt lat="47.501794" lon="7.932466">
        <ele>436.785758</ele>
        <time>2021-11-07T11:29:10.252Z</time>
      </trkpt>
      <trkpt lat="47.501463" lon="7.932668">
        <ele>437.051839</ele>
        <time>2021-11-07T11:29:16.392Z</time>
      </trkpt>
      <trkpt lat="47.501075" lon="7.932885">
        <ele>437.359544</ele>
        <time>2021-11-07T11:29:23.931Z</time>
      </trkpt>
      <trkpt lat="47.500990" lon="7.932950">
        <ele>437.400290</ele>
        <time>2021-11-07T11:29:25.749Z</time>
      </trkpt>
      <trkpt lat="47.500843" lon="7.933102">
        <ele>437.476657</ele>
        <time>2021-11-07T11:29:28.628Z</time>
      </trkpt>
      <trkpt lat="47.500435" lon="7.933872">
        <ele>437.758214</ele>
        <time>2021-11-07T11:29:38.459Z</time>
      </trkpt>
      <trkpt lat="47.500386" lon="7.933937">
        <ele>437.786237</ele>
        <time>2021-11-07T11:29:39.318Z</time>
      </trkpt>
      <trkpt lat="47.500352" lon="7.933976">
        <ele>437.804556</ele>
        <time>2021-11-07T11:29:40.080Z</time>
      </trkpt>
      <trkpt lat="47.500275" lon="7.934029">
        <ele>437.840721</ele>
        <time>2021-11-07T11:29:41.188Z</time>
      </trkpt>
      <trkpt lat="47.500208" lon="7.934071">
        <ele>437.871709</ele>
        <time>2021-11-07T11:29:42.421Z</time>
      </trkpt>
      <trkpt lat="47.500193" lon="7.934023">
        <ele>437.886925</ele>
        <time>2021-11-07T11:29:42.900Z</time>
      </trkpt>
      <trkpt lat="47.500169" lon="7.933984">
        <ele>437.902104</ele>
        <time>2021-11-07T11:29:43.333Z</time>
      </trkpt>
      <trkpt lat="47.500138" lon="7.933956">
        <ele>437.917570</ele>
        <time>2021-11-07T11:29:43.877Z</time>
      </trkpt>
      <trkpt lat="47.500067" lon="7.933946">
        <ele>437.947944</ele>
        <time>2021-11-07T11:29:44.825Z</time>
      </trkpt>
      <trkpt lat="47.500034" lon="7.933965">
        <ele>437.963024</ele>
        <time>2021-11-07T11:29:45.644Z</time>
      </trkpt>
      <trkpt lat="47.499993" lon="7.933864">
        <ele>437.996927</ele>
        <time>2021-11-07T11:29:47.186Z</time>
      </trkpt>
      <trkpt lat="47.499822" lon="7.933272">
        <ele>438.330250</ele>
        <time>2021-11-07T11:29:55.166Z</time>
      </trkpt>
      <trkpt lat="47.499538" lon="7.932868">
        <ele>438.931118</ele>
        <time>2021-11-07T11:30:03.147Z</time>
      </trkpt>
      <trkpt lat="47.499421" lon="7.932805">
        <ele>439.121039</ele>
        <time>2021-11-07T11:30:06.202Z</time>
      </trkpt>
      <trkpt lat="47.499354" lon="7.932769">
        <ele>439.229771</ele>
        <time>2021-11-07T11:30:07.929Z</time>
      </trkpt>
      <trkpt lat="47.499088" lon="7.932741">
        <ele>439.636567</ele>
        <time>2021-11-07T11:30:13.806Z</time>
      </trkpt>
      <trkpt lat="47.498997" lon="7.932758">
        <ele>439.776485</ele>
        <time>2021-11-07T11:30:15.844Z</time>
      </trkpt>
      <trkpt lat="47.498925" lon="7.932781">
        <ele>439.888847</ele>
        <time>2021-11-07T11:30:17.551Z</time>
      </trkpt>
      <trkpt lat="47.498481" lon="7.933011">
        <ele>440.606431</ele>
        <time>2021-11-07T11:30:26.805Z</time>
      </trkpt>
      <trkpt lat="47.498431" lon="7.932995">
        <ele>440.684466</ele>
        <time>2021-11-07T11:30:28.027Z</time>
      </trkpt>
      <trkpt lat="47.498391" lon="7.932972">
        <ele>440.749927</ele>
        <time>2021-11-07T11:30:28.946Z</time>
      </trkpt>
      <trkpt lat="47.498196" lon="7.932613">
        <ele>441.293291</ele>
        <time>2021-11-07T11:30:35.670Z</time>
      </trkpt>
      <trkpt lat="47.498138" lon="7.932522">
        <ele>441.447072</ele>
        <time>2021-11-07T11:30:37.670Z</time>
      </trkpt>
      <trkpt lat="47.498068" lon="7.932426">
        <ele>441.620699</ele>
        <time>2021-11-07T11:30:40.117Z</time>
      </trkpt>
      <trkpt lat="47.497907" lon="7.932254">
        <ele>441.981959</ele>
        <time>2021-11-07T11:30:44.819Z</time>
      </trkpt>
      <trkpt lat="47.497676" lon="7.932013">
        <ele>442.496162</ele>
        <time>2021-11-07T11:30:51.298Z</time>
      </trkpt>
      <trkpt lat="47.497430" lon="7.931757">
        <ele>443.043296</ele>
        <time>2021-11-07T11:30:58.889Z</time>
      </trkpt>
      <trkpt lat="47.497221" lon="7.931528">
        <ele>443.516414</ele>
        <time>2021-11-07T11:31:04.886Z</time>
      </trkpt>
      <trkpt lat="47.497104" lon="7.931414">
        <ele>443.771272</ele>
        <time>2021-11-07T11:31:07.684Z</time>
      </trkpt>
      <trkpt lat="47.496998" lon="7.931330">
        <ele>443.990035</ele>
        <time>2021-11-07T11:31:10.095Z</time>
      </trkpt>
      <trkpt lat="47.496424" lon="7.931075">
        <ele>444.922654</ele>
        <time>2021-11-07T11:31:20.844Z</time>
      </trkpt>
      <trkpt lat="47.496205" lon="7.930904">
        <ele>445.297495</ele>
        <time>2021-11-07T11:31:24.837Z</time>
      </trkpt>
      <trkpt lat="47.496162" lon="7.930842">
        <ele>445.388373</ele>
        <time>2021-11-07T11:31:26.304Z</time>
      </trkpt>
      <trkpt lat="47.496117" lon="7.930763">
        <ele>445.494061</ele>
        <time>2021-11-07T11:31:27.459Z</time>
      </trkpt>
      <trkpt lat="47.496051" lon="7.930607">
        <ele>445.682322</ele>
        <time>2021-11-07T11:31:30.071Z</time>
      </trkpt>
      <trkpt lat="47.495985" lon="7.930428">
        <ele>445.890896</ele>
        <time>2021-11-07T11:31:33.232Z</time>
      </trkpt>
      <trkpt lat="47.495801" lon="7.929891">
        <ele>446.506748</ele>
        <time>2021-11-07T11:31:42.812Z</time>
      </trkpt>
      <trkpt lat="47.495622" lon="7.929400">
        <ele>447.308738</ele>
        <time>2021-11-07T11:31:51.397Z</time>
      </trkpt>
      <trkpt lat="47.495562" lon="7.929221">
        <ele>447.734644</ele>
        <time>2021-11-07T11:31:54.136Z</time>
      </trkpt>
      <trkpt lat="47.495530" lon="7.929063">
        <ele>448.086221</ele>
        <time>2021-11-07T11:31:57.016Z</time>
      </trkpt>
      <trkpt lat="47.495468" lon="7.928678">
        <ele>448.929825</ele>
        <time>2021-11-07T11:32:04.029Z</time>
      </trkpt>
      <trkpt lat="47.495455" lon="7.928595">
        <ele>449.111429</ele>
        <time>2021-11-07T11:32:05.843Z</time>
      </trkpt>
      <trkpt lat="47.495268" lon="7.927740">
        <ele>451.026948</ele>
        <time>2021-11-07T11:32:22.505Z</time>
      </trkpt>
      <trkpt lat="47.495031" lon="7.927006">
        <ele>452.830543</ele>
        <time>2021-11-07T11:32:39.650Z</time>
      </trkpt>
      <trkpt lat="47.494945" lon="7.926765">
        <ele>453.593007</ele>
        <time>2021-11-07T11:32:45.946Z</time>
      </trkpt>
      <trkpt lat="47.494515" lon="7.925509">
        <ele>457.532065</ele>
        <time>2021-11-07T11:33:15.351Z</time>
      </trkpt>
      <trkpt lat="47.494438" lon="7.925289">
        <ele>458.225205</ele>
        <time>2021-11-07T11:33:21.259Z</time>
      </trkpt>
      <trkpt lat="47.494183" lon="7.924537">
        <ele>460.556625</ele>
        <time>2021-11-07T11:33:38.783Z</time>
      </trkpt>
      <trkpt lat="47.494183" lon="7.924537">
        <ele>460.556625</ele>
        <time>2021-11-07T11:33:38.795Z</time>
      </trkpt>
      <trkpt lat="47.493847" lon="7.923505">
        <ele>463.640298</ele>
        <time>2021-11-07T11:33:53.149Z</time>
      </trkpt>
      <trkpt lat="47.493512" lon="7.922472">
        <ele>466.724686</ele>
        <time>2021-11-07T11:34:07.505Z</time>
      </trkpt>
      <trkpt lat="47.493177" lon="7.921439">
        <ele>469.833042</ele>
        <time>2021-11-07T11:34:21.862Z</time>
      </trkpt>
      <trkpt lat="47.492841" lon="7.920407">
        <ele>472.944552</ele>
        <time>2021-11-07T11:34:36.217Z</time>
      </trkpt>
      <trkpt lat="47.492506" lon="7.919374">
        <ele>476.054305</ele>
        <time>2021-11-07T11:34:50.574Z</time>
      </trkpt>
      <trkpt lat="47.492506" lon="7.919374">
        <ele>476.054305</ele>
        <time>2021-11-07T11:34:50.575Z</time>
      </trkpt>
      <trkpt lat="47.491906" lon="7.918551">
        <ele>479.337977</ele>
        <time>2021-11-07T11:35:05.746Z</time>
      </trkpt>
      <trkpt lat="47.491305" lon="7.917727">
        <ele>482.424765</ele>
        <time>2021-11-07T11:35:20.940Z</time>
      </trkpt>
      <trkpt lat="47.490705" lon="7.916904">
        <ele>485.062560</ele>
        <time>2021-11-07T11:35:36.107Z</time>
      </trkpt>
      <trkpt lat="47.490607" lon="7.916690">
        <ele>485.625799</ele>
        <time>2021-11-07T11:35:40.801Z</time>
      </trkpt>
      <trkpt lat="47.490429" lon="7.916164">
        <ele>486.907506</ele>
        <time>2021-11-07T11:35:50.862Z</time>
      </trkpt>
      <trkpt lat="47.490283" lon="7.915612">
        <ele>488.025407</ele>
        <time>2021-11-07T11:36:00.954Z</time>
      </trkpt>
      <trkpt lat="47.489987" lon="7.914083">
        <ele>490.737194</ele>
        <time>2021-11-07T11:36:27.245Z</time>
      </trkpt>
      <trkpt lat="47.489951" lon="7.913893">
        <ele>491.073635</ele>
        <time>2021-11-07T11:36:30.480Z</time>
      </trkpt>
      <trkpt lat="47.489922" lon="7.913738">
        <ele>491.347851</ele>
        <time>2021-11-07T11:36:33.222Z</time>
      </trkpt>
      <trkpt lat="47.489843" lon="7.913398">
        <ele>491.965688</ele>
        <time>2021-11-07T11:36:39.190Z</time>
      </trkpt>
      <trkpt lat="47.489607" lon="7.912646">
        <ele>493.690980</ele>
        <time>2021-11-07T11:36:53.834Z</time>
      </trkpt>
      <trkpt lat="47.489539" lon="7.912479">
        <ele>494.096690</ele>
        <time>2021-11-07T11:36:57.395Z</time>
      </trkpt>
      <trkpt lat="47.489539" lon="7.912479">
        <ele>494.096690</ele>
        <time>2021-11-07T11:36:57.398Z</time>
      </trkpt>
      <trkpt lat="47.489162" lon="7.911494">
        <ele>496.452245</ele>
        <time>2021-11-07T11:37:11.580Z</time>
      </trkpt>
      <trkpt lat="47.488785" lon="7.910510">
        <ele>498.910787</ele>
        <time>2021-11-07T11:37:25.752Z</time>
      </trkpt>
      <trkpt lat="47.488409" lon="7.909525">
        <ele>501.450549</ele>
        <time>2021-11-07T11:37:39.925Z</time>
      </trkpt>
      <trkpt lat="47.488032" lon="7.908541">
        <ele>504.078883</ele>
        <time>2021-11-07T11:37:54.098Z</time>
      </trkpt>
      <trkpt lat="47.487655" lon="7.907556">
        <ele>507.041140</ele>
        <time>2021-11-07T11:38:08.281Z</time>
      </trkpt>
      <trkpt lat="47.487655" lon="7.907556">
        <ele>507.041140</ele>
        <time>2021-11-07T11:38:08.291Z</time>
      </trkpt>
      <trkpt lat="47.487655" lon="7.907556">
        <ele>507.041140</ele>
        <time>2021-11-07T11:38:08.291Z</time>
      </trkpt>
      <trkpt lat="47.487225" lon="7.906807">
        <ele>509.612954</ele>
        <time>2021-11-07T11:38:20.606Z</time>
      </trkpt>
      <trkpt lat="47.486796" lon="7.906058">
        <ele>512.946699</ele>
        <time>2021-11-07T11:38:32.916Z</time>
      </trkpt>
      <trkpt lat="47.486769" lon="7.905976">
        <ele>513.288841</ele>
        <time>2021-11-07T11:38:35.398Z</time>
      </trkpt>
      <trkpt lat="47.486724" lon="7.905485">
        <ele>515.147394</ele>
        <time>2021-11-07T11:38:48.287Z</time>
      </trkpt>
      <trkpt lat="47.486753" lon="7.904553">
        <ele>518.646937</ele>
        <time>2021-11-07T11:39:10.984Z</time>
      </trkpt>
      <trkpt lat="47.486753" lon="7.904553">
        <ele>518.646937</ele>
        <time>2021-11-07T11:39:11.039Z</time>
      </trkpt>
      <trkpt lat="47.486753" lon="7.904553">
        <ele>518.646937</ele>
        <time>2021-11-07T11:39:11.039Z</time>
      </trkpt>
      <trkpt lat="47.486321" lon="7.904035">
        <ele>521.667673</ele>
        <time>2021-11-07T11:39:21.362Z</time>
      </trkpt>
      <trkpt lat="47.486247" lon="7.904043">
        <ele>522.059246</ele>
        <time>2021-11-07T11:39:23.959Z</time>
      </trkpt>
      <trkpt lat="47.486049" lon="7.904262">
        <ele>523.363815</ele>
        <time>2021-11-07T11:39:33.937Z</time>
      </trkpt>
      <trkpt lat="47.485593" lon="7.905145">
        <ele>527.327168</ele>
        <time>2021-11-07T11:40:04.509Z</time>
      </trkpt>
      <trkpt lat="47.485550" lon="7.905177">
        <ele>527.581179</ele>
        <time>2021-11-07T11:40:06.397Z</time>
      </trkpt>
      <trkpt lat="47.485550" lon="7.905177">
        <ele>527.581179</ele>
        <time>2021-11-07T11:40:06.400Z</time>
      </trkpt>
      <trkpt lat="47.484974" lon="7.905045">
        <ele>529.769507</ele>
        <time>2021-11-07T11:40:17.207Z</time>
      </trkpt>
      <trkpt lat="47.484397" lon="7.904914">
        <ele>529.265775</ele>
        <time>2021-11-07T11:40:28.026Z</time>
      </trkpt>
      <trkpt lat="47.484248" lon="7.904856">
        <ele>529.132826</ele>
        <time>2021-11-07T11:40:29.798Z</time>
      </trkpt>
      <trkpt lat="47.484124" lon="7.904824">
        <ele>529.024208</ele>
        <time>2021-11-07T11:40:31.965Z</time>
      </trkpt>
      <trkpt lat="47.484064" lon="7.904808">
        <ele>528.971599</ele>
        <time>2021-11-07T11:40:32.712Z</time>
      </trkpt>
      <trkpt lat="47.484005" lon="7.904793">
        <ele>528.919941</ele>
        <time>2021-11-07T11:40:33.273Z</time>
      </trkpt>
      <trkpt lat="47.483385" lon="7.904708">
        <ele>528.382638</ele>
        <time>2021-11-07T11:40:39.846Z</time>
      </trkpt>
      <trkpt lat="47.483329" lon="7.904705">
        <ele>528.281610</ele>
        <time>2021-11-07T11:40:40.370Z</time>
      </trkpt>
      <trkpt lat="47.483101" lon="7.904680">
        <ele>526.767381</ele>
        <time>2021-11-07T11:40:42.530Z</time>
      </trkpt>
      <trkpt lat="47.482576" lon="7.904568">
        <ele>523.254251</ele>
        <time>2021-11-07T11:40:47.260Z</time>
      </trkpt>
      <trkpt lat="47.482433" lon="7.904538">
        <ele>522.297662</ele>
        <time>2021-11-07T11:40:48.518Z</time>
      </trkpt>
      <trkpt lat="47.482157" lon="7.904346">
        <ele>520.277719</ele>
        <time>2021-11-07T11:40:51.236Z</time>
      </trkpt>
      <trkpt lat="47.481709" lon="7.903892">
        <ele>516.681350</ele>
        <time>2021-11-07T11:40:56.079Z</time>
      </trkpt>
      <trkpt lat="47.481588" lon="7.903776">
        <ele>515.815556</ele>
        <time>2021-11-07T11:40:57.363Z</time>
      </trkpt>
      <trkpt lat="47.481478" lon="7.903693">
        <ele>515.101420</ele>
        <time>2021-11-07T11:40:58.489Z</time>
      </trkpt>
      <trkpt lat="47.481071" lon="7.903503">
        <ele>512.633134</ele>
        <time>2021-11-07T11:41:02.430Z</time>
      </trkpt>
      <trkpt lat="47.480980" lon="7.903461">
        <ele>512.081820</ele>
        <time>2021-11-07T11:41:03.297Z</time>
      </trkpt>
      <trkpt lat="47.478367" lon="7.903166">
        <ele>497.458681</ele>
        <time>2021-11-07T11:41:27.825Z</time>
      </trkpt>
      <trkpt lat="47.478182" lon="7.903109">
        <ele>496.429801</ele>
        <time>2021-11-07T11:41:29.577Z</time>
      </trkpt>
      <trkpt lat="47.478118" lon="7.903075">
        <ele>496.029991</ele>
        <time>2021-11-07T11:41:30.180Z</time>
      </trkpt>
      <trkpt lat="47.477975" lon="7.902970">
        <ele>495.013249</ele>
        <time>2021-11-07T11:41:31.661Z</time>
      </trkpt>
      <trkpt lat="47.476982" lon="7.902234">
        <ele>487.939720</ele>
        <time>2021-11-07T11:41:41.662Z</time>
      </trkpt>
      <trkpt lat="47.476536" lon="7.901977">
        <ele>484.891347</ele>
        <time>2021-11-07T11:41:46.044Z</time>
      </trkpt>
      <trkpt lat="47.476364" lon="7.901870">
        <ele>483.824230</ele>
        <time>2021-11-07T11:41:47.760Z</time>
      </trkpt>
      <trkpt lat="47.475300" lon="7.901112">
        <ele>477.150970</ele>
        <time>2021-11-07T11:41:58.720Z</time>
      </trkpt>
      <trkpt lat="47.475163" lon="7.901034">
        <ele>476.321454</ele>
        <time>2021-11-07T11:42:00.047Z</time>
      </trkpt>
      <trkpt lat="47.474888" lon="7.900841">
        <ele>474.602698</ele>
        <time>2021-11-07T11:42:02.900Z</time>
      </trkpt>
      <trkpt lat="47.474762" lon="7.900710">
        <ele>473.814248</ele>
        <time>2021-11-07T11:42:04.338Z</time>
      </trkpt>
      <trkpt lat="47.474617" lon="7.900560">
        <ele>472.908402</ele>
        <time>2021-11-07T11:42:06.030Z</time>
      </trkpt>
      <trkpt lat="47.474336" lon="7.900125">
        <ele>470.826145</ele>
        <time>2021-11-07T11:42:09.806Z</time>
      </trkpt>
      <trkpt lat="47.474186" lon="7.899915">
        <ele>469.768839</ele>
        <time>2021-11-07T11:42:11.751Z</time>
      </trkpt>
      <trkpt lat="47.474087" lon="7.899774">
        <ele>469.065282</ele>
        <time>2021-11-07T11:42:13.006Z</time>
      </trkpt>
      <trkpt lat="47.473931" lon="7.899567">
        <ele>467.992414</ele>
        <time>2021-11-07T11:42:14.988Z</time>
      </trkpt>
      <trkpt lat="47.473317" lon="7.898945">
        <ele>464.181491</ele>
        <time>2021-11-07T11:42:22.204Z</time>
      </trkpt>
      <trkpt lat="47.473308" lon="7.898941">
        <ele>464.133337</ele>
        <time>2021-11-07T11:42:22.280Z</time>
      </trkpt>
      <trkpt lat="47.471910" lon="7.898392">
        <ele>456.721666</ele>
        <time>2021-11-07T11:42:35.786Z</time>
      </trkpt>
      <trkpt lat="47.471825" lon="7.898370">
        <ele>456.279496</ele>
        <time>2021-11-07T11:42:36.589Z</time>
      </trkpt>
      <trkpt lat="47.471597" lon="7.898344">
        <ele>455.305188</ele>
        <time>2021-11-07T11:42:38.798Z</time>
      </trkpt>
      <trkpt lat="47.471002" lon="7.898222">
        <ele>452.789189</ele>
        <time>2021-11-07T11:42:44.478Z</time>
      </trkpt>
      <trkpt lat="47.469999" lon="7.897879">
        <ele>448.592606</ele>
        <time>2021-11-07T11:42:54.529Z</time>
      </trkpt>
      <trkpt lat="47.469806" lon="7.897795">
        <ele>448.295142</ele>
        <time>2021-11-07T11:42:56.670Z</time>
      </trkpt>
      <trkpt lat="47.469534" lon="7.897638">
        <ele>447.863434</ele>
        <time>2021-11-07T11:42:59.888Z</time>
      </trkpt>
      <trkpt lat="47.469534" lon="7.897638">
        <ele>447.863434</ele>
        <time>2021-11-07T11:42:59.891Z</time>
      </trkpt>
      <trkpt lat="47.469534" lon="7.897638">
        <ele>447.863434</ele>
        <time>2021-11-07T11:42:59.924Z</time>
      </trkpt>
      <trkpt lat="47.469456" lon="7.897860">
        <ele>447.613360</ele>
        <time>2021-11-07T11:43:01.994Z</time>
      </trkpt>
      <trkpt lat="47.469155" lon="7.898409">
        <ele>446.906832</ele>
        <time>2021-11-07T11:43:07.498Z</time>
      </trkpt>
      <trkpt lat="47.469026" lon="7.898570">
        <ele>446.657278</ele>
        <time>2021-11-07T11:43:09.664Z</time>
      </trkpt>
      <trkpt lat="47.468974" lon="7.898632">
        <ele>446.558526</ele>
        <time>2021-11-07T11:43:10.599Z</time>
      </trkpt>
      <trkpt lat="47.468719" lon="7.898908">
        <ele>446.091339</ele>
        <time>2021-11-07T11:43:14.681Z</time>
      </trkpt>
      <trkpt lat="47.468595" lon="7.899046">
        <ele>446.068948</ele>
        <time>2021-11-07T11:43:16.822Z</time>
      </trkpt>
      <trkpt lat="47.468210" lon="7.899465">
        <ele>446.453030</ele>
        <time>2021-11-07T11:43:25.154Z</time>
      </trkpt>
      <trkpt lat="47.467978" lon="7.899694">
        <ele>446.677152</ele>
        <time>2021-11-07T11:43:29.891Z</time>
      </trkpt>
      <trkpt lat="47.467778" lon="7.899859">
        <ele>446.861171</ele>
        <time>2021-11-07T11:43:34.262Z</time>
      </trkpt>
      <trkpt lat="47.467497" lon="7.900103">
        <ele>447.123004</ele>
        <time>2021-11-07T11:43:40.356Z</time>
      </trkpt>
      <trkpt lat="47.467245" lon="7.900444">
        <ele>447.397449</ele>
        <time>2021-11-07T11:43:47.231Z</time>
      </trkpt>
      <trkpt lat="47.467108" lon="7.900644">
        <ele>447.729644</ele>
        <time>2021-11-07T11:43:51.317Z</time>
      </trkpt>
      <trkpt lat="47.466605" lon="7.901426">
        <ele>449.256085</ele>
        <time>2021-11-07T11:44:08.209Z</time>
      </trkpt>
      <trkpt lat="47.466371" lon="7.901784">
        <ele>449.960289</ele>
        <time>2021-11-07T11:44:16.340Z</time>
      </trkpt>
      <trkpt lat="47.465938" lon="7.902461">
        <ele>451.278921</ele>
        <time>2021-11-07T11:44:31.782Z</time>
      </trkpt>
      <trkpt lat="47.465643" lon="7.902890">
        <ele>452.152232</ele>
        <time>2021-11-07T11:44:41.789Z</time>
      </trkpt>
      <trkpt lat="47.465577" lon="7.902991">
        <ele>452.352705</ele>
        <time>2021-11-07T11:44:44.104Z</time>
      </trkpt>
      <trkpt lat="47.465231" lon="7.903593">
        <ele>453.480378</ele>
        <time>2021-11-07T11:44:56.211Z</time>
      </trkpt>
      <trkpt lat="47.463753" lon="7.907066">
        <ele>459.327896</ele>
        <time>2021-11-07T11:45:59.060Z</time>
      </trkpt>
      <trkpt lat="47.463375" lon="7.907958">
        <ele>461.214081</ele>
        <time>2021-11-07T11:46:18.680Z</time>
      </trkpt>
      <trkpt lat="47.463144" lon="7.908499">
        <ele>462.360520</ele>
        <time>2021-11-07T11:46:30.315Z</time>
      </trkpt>
      <trkpt lat="47.463026" lon="7.908779">
        <ele>462.951680</ele>
        <time>2021-11-07T11:46:36.705Z</time>
      </trkpt>
      <trkpt lat="47.461915" lon="7.911456">
        <ele>466.333027</ele>
        <time>2021-11-07T11:47:21.626Z</time>
      </trkpt>
      <trkpt lat="47.461598" lon="7.912222">
        <ele>466.873359</ele>
        <time>2021-11-07T11:47:30.310Z</time>
      </trkpt>
      <trkpt lat="47.461501" lon="7.912447">
        <ele>467.033905</ele>
        <time>2021-11-07T11:47:32.924Z</time>
      </trkpt>
      <trkpt lat="47.461343" lon="7.912835">
        <ele>467.306412</ele>
        <time>2021-11-07T11:47:38.432Z</time>
      </trkpt>
      <trkpt lat="47.461328" lon="7.912870">
        <ele>467.331344</ele>
        <time>2021-11-07T11:47:38.803Z</time>
      </trkpt>
      <trkpt lat="47.461271" lon="7.913000">
        <ele>467.424564</ele>
        <time>2021-11-07T11:47:40.916Z</time>
      </trkpt>
      <trkpt lat="47.461207" lon="7.913109">
        <ele>467.511421</ele>
        <time>2021-11-07T11:47:42.708Z</time>
      </trkpt>
      <trkpt lat="47.461143" lon="7.913171">
        <ele>467.579502</ele>
        <time>2021-11-07T11:47:44.087Z</time>
      </trkpt>
      <trkpt lat="47.461164" lon="7.913273">
        <ele>467.643651</ele>
        <time>2021-11-07T11:47:45.067Z</time>
      </trkpt>
      <trkpt lat="47.461278" lon="7.913570">
        <ele>468.018507</ele>
        <time>2021-11-07T11:47:50.297Z</time>
      </trkpt>
      <trkpt lat="47.461299" lon="7.913673">
        <ele>468.310266</ele>
        <time>2021-11-07T11:47:51.677Z</time>
      </trkpt>
      <trkpt lat="47.461281" lon="7.913929">
        <ele>469.008278</ele>
        <time>2021-11-07T11:47:56.365Z</time>
      </trkpt>
      <trkpt lat="47.461271" lon="7.914302">
        <ele>470.020642</ele>
        <time>2021-11-07T11:48:02.451Z</time>
      </trkpt>
      <trkpt lat="47.461285" lon="7.914482">
        <ele>470.512018</ele>
        <time>2021-11-07T11:48:06.638Z</time>
      </trkpt>
      <trkpt lat="47.461301" lon="7.914694">
        <ele>471.090529</ele>
        <time>2021-11-07T11:48:11.853Z</time>
      </trkpt>
      <trkpt lat="47.461325" lon="7.915214">
        <ele>472.504040</ele>
        <time>2021-11-07T11:48:23.861Z</time>
      </trkpt>
      <trkpt lat="47.461338" lon="7.915497">
        <ele>473.273299</ele>
        <time>2021-11-07T11:48:29.958Z</time>
      </trkpt>
      <trkpt lat="47.461330" lon="7.915634">
        <ele>473.646224</ele>
        <time>2021-11-07T11:48:33.324Z</time>
      </trkpt>
      <trkpt lat="47.461283" lon="7.915854">
        <ele>474.271937</ele>
        <time>2021-11-07T11:48:39.147Z</time>
      </trkpt>
      <trkpt lat="47.461188" lon="7.916015">
        <ele>474.851472</ele>
        <time>2021-11-07T11:48:44.545Z</time>
      </trkpt>
      <trkpt lat="47.460901" lon="7.916489">
        <ele>476.828278</ele>
        <time>2021-11-07T11:49:00.013Z</time>
      </trkpt>
      <trkpt lat="47.460876" lon="7.916582">
        <ele>477.143360</ele>
        <time>2021-11-07T11:49:03.300Z</time>
      </trkpt>
      <trkpt lat="47.460905" lon="7.916689">
        <ele>477.506283</ele>
        <time>2021-11-07T11:49:05.600Z</time>
      </trkpt>
      <trkpt lat="47.460987" lon="7.916828">
        <ele>478.087057</ele>
        <time>2021-11-07T11:49:09.503Z</time>
      </trkpt>
      <trkpt lat="47.461215" lon="7.917124">
        <ele>479.499710</ele>
        <time>2021-11-07T11:49:20.048Z</time>
      </trkpt>
      <trkpt lat="47.461435" lon="7.917389">
        <ele>480.820884</ele>
        <time>2021-11-07T11:49:30.248Z</time>
      </trkpt>
      <trkpt lat="47.461669" lon="7.917595">
        <ele>482.088910</ele>
        <time>2021-11-07T11:49:39.049Z</time>
      </trkpt>
      <trkpt lat="47.462143" lon="7.918024">
        <ele>484.270759</ele>
        <time>2021-11-07T11:49:55.002Z</time>
      </trkpt>
      <trkpt lat="47.462363" lon="7.918249">
        <ele>485.123060</ele>
        <time>2021-11-07T11:50:01.977Z</time>
      </trkpt>
      <trkpt lat="47.462945" lon="7.918869">
        <ele>487.408550</ele>
        <time>2021-11-07T11:50:20.499Z</time>
      </trkpt>
      <trkpt lat="47.463461" lon="7.919439">
        <ele>489.607555</ele>
        <time>2021-11-07T11:50:38.503Z</time>
      </trkpt>
      <trkpt lat="47.463765" lon="7.919763">
        <ele>491.320003</ele>
        <time>2021-11-07T11:50:49.371Z</time>
      </trkpt>
      <trkpt lat="47.464024" lon="7.919978">
        <ele>492.677362</ele>
        <time>2021-11-07T11:50:58.158Z</time>
      </trkpt>
      <trkpt lat="47.464134" lon="7.920084">
        <ele>493.277362</ele>
        <time>2021-11-07T11:51:02.415Z</time>
      </trkpt>
      <trkpt lat="47.464357" lon="7.920402">
        <ele>494.693014</ele>
        <time>2021-11-07T11:51:12.491Z</time>
      </trkpt>
      <trkpt lat="47.464957" lon="7.921200">
        <ele>498.844915</ele>
        <time>2021-11-07T11:51:43.578Z</time>
      </trkpt>
      <trkpt lat="47.465510" lon="7.922001">
        <ele>503.964738</ele>
        <time>2021-11-07T11:52:16.200Z</time>
      </trkpt>
      <trkpt lat="47.465661" lon="7.922236">
        <ele>505.414608</ele>
        <time>2021-11-07T11:52:24.504Z</time>
      </trkpt>
      <trkpt lat="47.465674" lon="7.922268">
        <ele>505.581561</ele>
        <time>2021-11-07T11:52:26.786Z</time>
      </trkpt>
      <trkpt lat="47.465862" lon="7.922754">
        <ele>508.085567</ele>
        <time>2021-11-07T11:52:42.845Z</time>
      </trkpt>
      <trkpt lat="47.466243" lon="7.923649">
        <ele>512.194966</ele>
        <time>2021-11-07T11:53:12.400Z</time>
      </trkpt>
      <trkpt lat="47.466439" lon="7.924357">
        <ele>515.022460</ele>
        <time>2021-11-07T11:53:31.990Z</time>
      </trkpt>
      <trkpt lat="47.466944" lon="7.927647">
        <ele>526.192128</ele>
        <time>2021-11-07T11:54:44.917Z</time>
      </trkpt>
      <trkpt lat="47.466921" lon="7.927833">
        <ele>526.783108</ele>
        <time>2021-11-07T11:54:49.157Z</time>
      </trkpt>
      <trkpt lat="47.466887" lon="7.928012">
        <ele>527.364229</ele>
        <time>2021-11-07T11:54:54.715Z</time>
      </trkpt>
      <trkpt lat="47.466793" lon="7.929314">
        <ele>534.400820</ele>
        <time>2021-11-07T11:55:28.732Z</time>
      </trkpt>
      <trkpt lat="47.466726" lon="7.929710">
        <ele>536.600248</ele>
        <time>2021-11-07T11:55:41.422Z</time>
      </trkpt>
      <trkpt lat="47.466646" lon="7.930061">
        <ele>538.596005</ele>
        <time>2021-11-07T11:55:54.091Z</time>
      </trkpt>
      <trkpt lat="47.466575" lon="7.930358">
        <ele>540.293331</ele>
        <time>2021-11-07T11:56:05.017Z</time>
      </trkpt>
      <trkpt lat="47.466500" lon="7.930593">
        <ele>541.693508</ele>
        <time>2021-11-07T11:56:17.174Z</time>
      </trkpt>
      <trkpt lat="47.466307" lon="7.931138">
        <ele>548.701858</ele>
        <time>2021-11-07T11:56:44.451Z</time>
      </trkpt>
      <trkpt lat="47.466183" lon="7.931564">
        <ele>554.011855</ele>
        <time>2021-11-07T11:57:06.394Z</time>
      </trkpt>
      <trkpt lat="47.466006" lon="7.931849">
        <ele>558.442600</ele>
        <time>2021-11-07T11:57:27.554Z</time>
      </trkpt>
      <trkpt lat="47.465737" lon="7.932210">
        <ele>564.593597</ele>
        <time>2021-11-07T11:58:03.163Z</time>
      </trkpt>
      <trkpt lat="47.465665" lon="7.932336">
        <ele>566.482433</ele>
        <time>2021-11-07T11:58:15.082Z</time>
      </trkpt>
      <trkpt lat="47.465418" lon="7.932899">
        <ele>574.151240</ele>
        <time>2021-11-07T11:58:59.324Z</time>
      </trkpt>
      <trkpt lat="47.465232" lon="7.933199">
        <ele>578.775841</ele>
        <time>2021-11-07T11:59:26.639Z</time>
      </trkpt>
      <trkpt lat="47.465050" lon="7.933530">
        <ele>583.623117</ele>
        <time>2021-11-07T11:59:51.744Z</time>
      </trkpt>
      <trkpt lat="47.465012" lon="7.933701">
        <ele>585.668119</ele>
        <time>2021-11-07T12:00:04.724Z</time>
      </trkpt>
      <trkpt lat="47.464859" lon="7.934732">
        <ele>597.660248</ele>
        <time>2021-11-07T12:01:03.100Z</time>
      </trkpt>
      <trkpt lat="47.464825" lon="7.935465">
        <ele>603.035871</ele>
        <time>2021-11-07T12:01:33.494Z</time>
      </trkpt>
      <trkpt lat="47.464704" lon="7.936449">
        <ele>605.007371</ele>
        <time>2021-11-07T12:01:53.293Z</time>
      </trkpt>
      <trkpt lat="47.464590" lon="7.936822">
        <ele>605.814282</ele>
        <time>2021-11-07T12:01:56.836Z</time>
      </trkpt>
      <trkpt lat="47.464587" lon="7.937012">
        <ele>606.188916</ele>
        <time>2021-11-07T12:01:59.169Z</time>
      </trkpt>
      <trkpt lat="47.464629" lon="7.937113">
        <ele>606.422659</ele>
        <time>2021-11-07T12:02:00.603Z</time>
      </trkpt>
      <trkpt lat="47.464677" lon="7.937153">
        <ele>606.583300</ele>
        <time>2021-11-07T12:02:01.079Z</time>
      </trkpt>
      <trkpt lat="47.464942" lon="7.936904">
        <ele>607.498704</ele>
        <time>2021-11-07T12:02:05.148Z</time>
      </trkpt>
      <trkpt lat="47.465246" lon="7.936375">
        <ele>607.388594</ele>
        <time>2021-11-07T12:02:09.787Z</time>
      </trkpt>
      <trkpt lat="47.466275" lon="7.934206">
        <ele>609.374790</ele>
        <time>2021-11-07T12:02:34.492Z</time>
      </trkpt>
      <trkpt lat="47.466525" lon="7.933862">
        <ele>611.784344</ele>
        <time>2021-11-07T12:02:48.822Z</time>
      </trkpt>
      <trkpt lat="47.466714" lon="7.933768">
        <ele>613.191500</ele>
        <time>2021-11-07T12:02:58.724Z</time>
      </trkpt>
      <trkpt lat="47.467031" lon="7.933835">
        <ele>615.451309</ele>
        <time>2021-11-07T12:03:16.008Z</time>
      </trkpt>
      <trkpt lat="47.467421" lon="7.934263">
        <ele>618.878265</ele>
        <time>2021-11-07T12:03:44.546Z</time>
      </trkpt>
      <trkpt lat="47.467864" lon="7.935123">
        <ele>625.683257</ele>
        <time>2021-11-07T12:04:30.767Z</time>
      </trkpt>
      <trkpt lat="47.467994" lon="7.935499">
        <ele>628.382509</ele>
        <time>2021-11-07T12:04:48.119Z</time>
      </trkpt>
      <trkpt lat="47.468621" lon="7.938578">
        <ele>643.675645</ele>
        <time>2021-11-07T12:06:20.424Z</time>
      </trkpt>
      <trkpt lat="47.469024" lon="7.940035">
        <ele>647.116411</ele>
        <time>2021-11-07T12:06:45.400Z</time>
      </trkpt>
      <trkpt lat="47.469060" lon="7.940284">
        <ele>647.379279</ele>
        <time>2021-11-07T12:06:48.545Z</time>
      </trkpt>
      <trkpt lat="47.469067" lon="7.940555">
        <ele>647.659248</ele>
        <time>2021-11-07T12:06:52.532Z</time>
      </trkpt>
      <trkpt lat="47.469037" lon="7.942114">
        <ele>649.079056</ele>
        <time>2021-11-07T12:07:11.393Z</time>
      </trkpt>
      <trkpt lat="47.469044" lon="7.942317">
        <ele>649.172257</ele>
        <time>2021-11-07T12:07:13.937Z</time>
      </trkpt>
      <trkpt lat="47.469058" lon="7.942569">
        <ele>649.288194</ele>
        <time>2021-11-07T12:07:16.779Z</time>
      </trkpt>
      <trkpt lat="47.469215" lon="7.943133">
        <ele>649.567868</ele>
        <time>2021-11-07T12:07:24.761Z</time>
      </trkpt>
      <trkpt lat="47.469517" lon="7.943834">
        <ele>649.949016</ele>
        <time>2021-11-07T12:07:35.052Z</time>
      </trkpt>
      <trkpt lat="47.469843" lon="7.944430">
        <ele>649.893699</ele>
        <time>2021-11-07T12:07:43.433Z</time>
      </trkpt>
      <trkpt lat="47.470096" lon="7.944809">
        <ele>649.490668</ele>
        <time>2021-11-07T12:07:48.406Z</time>
      </trkpt>
      <trkpt lat="47.470904" lon="7.946018">
        <ele>648.204280</ele>
        <time>2021-11-07T12:08:01.830Z</time>
      </trkpt>
      <trkpt lat="47.471580" lon="7.947013">
        <ele>644.458640</ele>
        <time>2021-11-07T12:08:11.481Z</time>
      </trkpt>
      <trkpt lat="47.471655" lon="7.947281">
        <ele>643.649539</ele>
        <time>2021-11-07T12:08:13.329Z</time>
      </trkpt>
      <trkpt lat="47.471588" lon="7.947530">
        <ele>642.901964</ele>
        <time>2021-11-07T12:08:15.232Z</time>
      </trkpt>
      <trkpt lat="47.471526" lon="7.947625">
        <ele>642.533613</ele>
        <time>2021-11-07T12:08:16.054Z</time>
      </trkpt>
      <trkpt lat="47.471433" lon="7.947675">
        <ele>642.125277</ele>
        <time>2021-11-07T12:08:16.958Z</time>
      </trkpt>
      <trkpt lat="47.470644" lon="7.947609">
        <ele>636.748173</ele>
        <time>2021-11-07T12:08:24.196Z</time>
      </trkpt>
      <trkpt lat="47.470424" lon="7.947722">
        <ele>634.686304</ele>
        <time>2021-11-07T12:08:26.249Z</time>
      </trkpt>
      <trkpt lat="47.470368" lon="7.947828">
        <ele>633.881149</ele>
        <time>2021-11-07T12:08:27.045Z</time>
      </trkpt>
      <trkpt lat="47.470333" lon="7.948107">
        <ele>632.182873</ele>
        <time>2021-11-07T12:08:28.732Z</time>
      </trkpt>
      <trkpt lat="47.470426" lon="7.948527">
        <ele>629.537824</ele>
        <time>2021-11-07T12:08:31.309Z</time>
      </trkpt>
      <trkpt lat="47.470338" lon="7.948724">
        <ele>628.124638</ele>
        <time>2021-11-07T12:08:32.695Z</time>
      </trkpt>
      <trkpt lat="47.470241" lon="7.948800">
        <ele>627.152819</ele>
        <time>2021-11-07T12:08:33.640Z</time>
      </trkpt>
      <trkpt lat="47.470079" lon="7.948808">
        <ele>625.717728</ele>
        <time>2021-11-07T12:08:35.029Z</time>
      </trkpt>
      <trkpt lat="47.469762" lon="7.948654">
        <ele>621.518002</ele>
        <time>2021-11-07T12:08:37.845Z</time>
      </trkpt>
      <trkpt lat="47.469469" lon="7.948624">
        <ele>617.316656</ele>
        <time>2021-11-07T12:08:40.297Z</time>
      </trkpt>
      <trkpt lat="47.469180" lon="7.948713">
        <ele>613.093926</ele>
        <time>2021-11-07T12:08:42.751Z</time>
      </trkpt>
      <trkpt lat="47.468810" lon="7.949041">
        <ele>606.923549</ele>
        <time>2021-11-07T12:08:46.323Z</time>
      </trkpt>
      <trkpt lat="47.468558" lon="7.949650">
        <ele>600.018823</ele>
        <time>2021-11-07T12:08:50.328Z</time>
      </trkpt>
      <trkpt lat="47.468441" lon="7.950143">
        <ele>595.441628</ele>
        <time>2021-11-07T12:08:53.261Z</time>
      </trkpt>
      <trkpt lat="47.468300" lon="7.950849">
        <ele>589.150016</ele>
        <time>2021-11-07T12:08:57.411Z</time>
      </trkpt>
      <trkpt lat="47.468208" lon="7.951691">
        <ele>581.860499</ele>
        <time>2021-11-07T12:09:02.270Z</time>
      </trkpt>
      <trkpt lat="47.468258" lon="7.952349">
        <ele>576.247318</ele>
        <time>2021-11-07T12:09:06.116Z</time>
      </trkpt>
      <trkpt lat="47.468338" lon="7.952658">
        <ele>574.533916</ele>
        <time>2021-11-07T12:09:08.069Z</time>
      </trkpt>
      <trkpt lat="47.468688" lon="7.953623">
        <ele>568.863162</ele>
        <time>2021-11-07T12:09:14.623Z</time>
      </trkpt>
      <trkpt lat="47.468825" lon="7.953883">
        <ele>567.156150</ele>
        <time>2021-11-07T12:09:16.638Z</time>
      </trkpt>
      <trkpt lat="47.469129" lon="7.954175">
        <ele>564.379660</ele>
        <time>2021-11-07T12:09:19.933Z</time>
      </trkpt>
      <trkpt lat="47.469948" lon="7.954438">
        <ele>558.336896</ele>
        <time>2021-11-07T12:09:27.564Z</time>
      </trkpt>
      <trkpt lat="47.470173" lon="7.954771">
        <ele>556.099585</ele>
        <time>2021-11-07T12:09:30.420Z</time>
      </trkpt>
      <trkpt lat="47.470344" lon="7.955464">
        <ele>552.594023</ele>
        <time>2021-11-07T12:09:34.856Z</time>
      </trkpt>
      <trkpt lat="47.470551" lon="7.956984">
        <ele>544.873683</ele>
        <time>2021-11-07T12:09:44.211Z</time>
      </trkpt>
      <trkpt lat="47.470611" lon="7.957558">
        <ele>541.905431</ele>
        <time>2021-11-07T12:09:47.705Z</time>
      </trkpt>
      <trkpt lat="47.470622" lon="7.958630">
        <ele>536.426423</ele>
        <time>2021-11-07T12:09:54.139Z</time>
      </trkpt>
      <trkpt lat="47.470999" lon="7.960100">
        <ele>528.359159</ele>
        <time>2021-11-07T12:10:03.550Z</time>
      </trkpt>
      <trkpt lat="47.471231" lon="7.960809">
        <ele>524.317171</ele>
        <time>2021-11-07T12:10:08.284Z</time>
      </trkpt>
      <trkpt lat="47.471575" lon="7.961333">
        <ele>521.128982</ele>
        <time>2021-11-07T12:10:12.745Z</time>
      </trkpt>
      <trkpt lat="47.471579" lon="7.961404">
        <ele>520.862045</ele>
        <time>2021-11-07T12:10:13.144Z</time>
      </trkpt>
      <trkpt lat="47.471568" lon="7.961446">
        <ele>520.693286</ele>
        <time>2021-11-07T12:10:13.401Z</time>
      </trkpt>
      <trkpt lat="47.471484" lon="7.961507">
        <ele>520.174623</ele>
        <time>2021-11-07T12:10:14.305Z</time>
      </trkpt>
      <trkpt lat="47.471375" lon="7.961461">
        <ele>519.546357</ele>
        <time>2021-11-07T12:10:15.418Z</time>
      </trkpt>
      <trkpt lat="47.470924" lon="7.960881">
        <ele>516.234061</ele>
        <time>2021-11-07T12:10:20.857Z</time>
      </trkpt>
      <trkpt lat="47.470268" lon="7.959615">
        <ele>511.210106</ele>
        <time>2021-11-07T12:10:31.556Z</time>
      </trkpt>
      <trkpt lat="47.469974" lon="7.958722">
        <ele>508.955200</ele>
        <time>2021-11-07T12:10:38.479Z</time>
      </trkpt>
      <trkpt lat="47.469781" lon="7.958087">
        <ele>507.374632</ele>
        <time>2021-11-07T12:10:43.272Z</time>
      </trkpt>
      <trkpt lat="47.469604" lon="7.957623">
        <ele>505.891557</ele>
        <time>2021-11-07T12:10:46.823Z</time>
      </trkpt>
      <trkpt lat="47.469296" lon="7.957034">
        <ele>503.215441</ele>
        <time>2021-11-07T12:10:51.705Z</time>
      </trkpt>
      <trkpt lat="47.469049" lon="7.956742">
        <ele>501.534521</ele>
        <time>2021-11-07T12:10:54.780Z</time>
      </trkpt>
      <trkpt lat="47.468875" lon="7.956583">
        <ele>500.447231</ele>
        <time>2021-11-07T12:10:56.634Z</time>
      </trkpt>
      <trkpt lat="47.468475" lon="7.956375">
        <ele>498.193155</ele>
        <time>2021-11-07T12:11:00.440Z</time>
      </trkpt>
      <trkpt lat="47.468322" lon="7.956470">
        <ele>497.311015</ele>
        <time>2021-11-07T12:11:02.035Z</time>
      </trkpt>
      <trkpt lat="47.468267" lon="7.956746">
        <ele>495.681371</ele>
        <time>2021-11-07T12:11:03.785Z</time>
      </trkpt>
      <trkpt lat="47.468479" lon="7.957453">
        <ele>490.820339</ele>
        <time>2021-11-07T12:11:08.384Z</time>
      </trkpt>
      <trkpt lat="47.468507" lon="7.957558">
        <ele>490.110925</ele>
        <time>2021-11-07T12:11:09.052Z</time>
      </trkpt>
      <trkpt lat="47.468524" lon="7.957646">
        <ele>489.535706</ele>
        <time>2021-11-07T12:11:09.568Z</time>
      </trkpt>
      <trkpt lat="47.468536" lon="7.958296">
        <ele>485.448947</ele>
        <time>2021-11-07T12:11:13.408Z</time>
      </trkpt>
      <trkpt lat="47.468627" lon="7.958965">
        <ele>481.160024</ele>
        <time>2021-11-07T12:11:17.341Z</time>
      </trkpt>
      <trkpt lat="47.468637" lon="7.959076">
        <ele>480.456225</ele>
        <time>2021-11-07T12:11:17.966Z</time>
      </trkpt>
      <trkpt lat="47.468641" lon="7.959158">
        <ele>479.877479</ele>
        <time>2021-11-07T12:11:18.459Z</time>
      </trkpt>
      <trkpt lat="47.468645" lon="7.959223">
        <ele>479.405205</ele>
        <time>2021-11-07T12:11:18.829Z</time>
      </trkpt>
      <trkpt lat="47.468655" lon="7.959428">
        <ele>477.917999</ele>
        <time>2021-11-07T12:11:20.018Z</time>
      </trkpt>
      <trkpt lat="47.468634" lon="7.959800">
        <ele>475.216895</ele>
        <time>2021-11-07T12:11:22.145Z</time>
      </trkpt>
      <trkpt lat="47.468516" lon="7.960416">
        <ele>470.584104</ele>
        <time>2021-11-07T12:11:25.846Z</time>
      </trkpt>
      <trkpt lat="47.468503" lon="7.960562">
        <ele>469.518543</ele>
        <time>2021-11-07T12:11:26.672Z</time>
      </trkpt>
      <trkpt lat="47.468498" lon="7.960883">
        <ele>467.195213</ele>
        <time>2021-11-07T12:11:28.548Z</time>
      </trkpt>
      <trkpt lat="47.468509" lon="7.961184">
        <ele>465.014038</ele>
        <time>2021-11-07T12:11:30.251Z</time>
      </trkpt>
      <trkpt lat="47.468616" lon="7.962000">
        <ele>459.775941</ele>
        <time>2021-11-07T12:11:35.183Z</time>
      </trkpt>
      <trkpt lat="47.469373" lon="7.963006">
        <ele>452.915818</ele>
        <time>2021-11-07T12:11:44.258Z</time>
      </trkpt>
      <trkpt lat="47.469749" lon="7.963424">
        <ele>449.745059</ele>
        <time>2021-11-07T12:11:48.722Z</time>
      </trkpt>
      <trkpt lat="47.470318" lon="7.964176">
        <ele>446.657057</ele>
        <time>2021-11-07T12:11:56.185Z</time>
      </trkpt>
      <trkpt lat="47.470351" lon="7.964220">
        <ele>446.498449</ele>
        <time>2021-11-07T12:11:56.601Z</time>
      </trkpt>
      <trkpt lat="47.470610" lon="7.964511">
        <ele>445.337315</ele>
        <time>2021-11-07T12:11:59.858Z</time>
      </trkpt>
      <trkpt lat="47.471250" lon="7.965231">
        <ele>442.461951</ele>
        <time>2021-11-07T12:12:08.249Z</time>
      </trkpt>
      <trkpt lat="47.471503" lon="7.965463">
        <ele>441.337754</ele>
        <time>2021-11-07T12:12:11.227Z</time>
      </trkpt>
      <trkpt lat="47.471880" lon="7.965766">
        <ele>439.717359</ele>
        <time>2021-11-07T12:12:15.509Z</time>
      </trkpt>
      <trkpt lat="47.472564" lon="7.966330">
        <ele>436.759893</ele>
        <time>2021-11-07T12:12:23.245Z</time>
      </trkpt>
      <trkpt lat="47.472594" lon="7.966357">
        <ele>436.627271</ele>
        <time>2021-11-07T12:12:23.550Z</time>
      </trkpt>
      <trkpt lat="47.472859" lon="7.966644">
        <ele>435.336775</ele>
        <time>2021-11-07T12:12:26.699Z</time>
      </trkpt>
      <trkpt lat="47.473444" lon="7.967380">
        <ele>432.043385</ele>
        <time>2021-11-07T12:12:33.973Z</time>
      </trkpt>
      <trkpt lat="47.473664" lon="7.967490">
        <ele>431.047456</ele>
        <time>2021-11-07T12:12:36.231Z</time>
      </trkpt>
      <trkpt lat="47.474076" lon="7.967608">
        <ele>429.247729</ele>
        <time>2021-11-07T12:12:40.195Z</time>
      </trkpt>
      <trkpt lat="47.474238" lon="7.967666">
        <ele>428.532914</ele>
        <time>2021-11-07T12:12:41.840Z</time>
      </trkpt>
      <trkpt lat="47.474560" lon="7.967748">
        <ele>427.708847</ele>
        <time>2021-11-07T12:12:45.136Z</time>
      </trkpt>
      <trkpt lat="47.475217" lon="7.967697">
        <ele>426.674179</ele>
        <time>2021-11-07T12:12:52.421Z</time>
      </trkpt>
      <trkpt lat="47.475280" lon="7.967711">
        <ele>426.573989</ele>
        <time>2021-11-07T12:12:53.125Z</time>
      </trkpt>
      <trkpt lat="47.475359" lon="7.967770">
        <ele>426.434816</ele>
        <time>2021-11-07T12:12:54.158Z</time>
      </trkpt>
      <trkpt lat="47.475436" lon="7.967868">
        <ele>426.275079</ele>
        <time>2021-11-07T12:12:55.497Z</time>
      </trkpt>
      <trkpt lat="47.475607" lon="7.968209">
        <ele>425.823736</ele>
        <time>2021-11-07T12:12:59.276Z</time>
      </trkpt>
      <trkpt lat="47.475616" lon="7.968229">
        <ele>425.798195</ele>
        <time>2021-11-07T12:12:59.548Z</time>
      </trkpt>
      <trkpt lat="47.475616" lon="7.968229">
        <ele>425.798195</ele>
        <time>2021-11-07T12:12:59.561Z</time>
      </trkpt>
      <trkpt lat="47.475684" lon="7.968334">
        <ele>425.643619</ele>
        <time>2021-11-07T12:13:01.223Z</time>
      </trkpt>
      <trkpt lat="47.475729" lon="7.968403">
        <ele>425.541698</ele>
        <time>2021-11-07T12:13:02.264Z</time>
      </trkpt>
      <trkpt lat="47.475871" lon="7.968576">
        <ele>425.252408</ele>
        <time>2021-11-07T12:13:04.649Z</time>
      </trkpt>
      <trkpt lat="47.476103" lon="7.968806">
        <ele>425.166395</ele>
        <time>2021-11-07T12:13:08.407Z</time>
      </trkpt>
      <trkpt lat="47.476327" lon="7.969094">
        <ele>425.110566</ele>
        <time>2021-11-07T12:13:12.425Z</time>
      </trkpt>
      <trkpt lat="47.476396" lon="7.969182">
        <ele>425.093428</ele>
        <time>2021-11-07T12:13:13.639Z</time>
      </trkpt>
      <trkpt lat="47.476670" lon="7.969631">
        <ele>425.016509</ele>
        <time>2021-11-07T12:13:19.970Z</time>
      </trkpt>
      <trkpt lat="47.476944" lon="7.970103">
        <ele>424.937395</ele>
        <time>2021-11-07T12:13:26.901Z</time>
      </trkpt>
      <trkpt lat="47.477029" lon="7.970212">
        <ele>424.916234</ele>
        <time>2021-11-07T12:13:28.378Z</time>
      </trkpt>
      <trkpt lat="47.477135" lon="7.970342">
        <ele>424.890333</ele>
        <time>2021-11-07T12:13:30.803Z</time>
      </trkpt>
      <trkpt lat="47.477203" lon="7.970445">
        <ele>424.826203</ele>
        <time>2021-11-07T12:13:32.069Z</time>
      </trkpt>
      <trkpt lat="47.477262" lon="7.970548">
        <ele>424.611722</ele>
        <time>2021-11-07T12:13:33.149Z</time>
      </trkpt>
      <trkpt lat="47.477284" lon="7.970600">
        <ele>424.514267</ele>
        <time>2021-11-07T12:13:33.647Z</time>
      </trkpt>
      <trkpt lat="47.477322" lon="7.970682">
        <ele>424.356326</ele>
        <time>2021-11-07T12:13:34.701Z</time>
      </trkpt>
      <trkpt lat="47.477370" lon="7.970827">
        <ele>424.099839</ele>
        <time>2021-11-07T12:13:36.012Z</time>
      </trkpt>
      <trkpt lat="47.477522" lon="7.971381">
        <ele>423.150023</ele>
        <time>2021-11-07T12:13:40.673Z</time>
      </trkpt>
      <trkpt lat="47.477553" lon="7.971461">
        <ele>423.003533</ele>
        <time>2021-11-07T12:13:41.273Z</time>
      </trkpt>
      <trkpt lat="47.477623" lon="7.971640">
        <ele>422.675013</ele>
        <time>2021-11-07T12:13:42.724Z</time>
      </trkpt>
      <trkpt lat="47.477698" lon="7.971759">
        <ele>422.416537</ele>
        <time>2021-11-07T12:13:44.007Z</time>
      </trkpt>
      <trkpt lat="47.477778" lon="7.971876">
        <ele>422.152152</ele>
        <time>2021-11-07T12:13:45.098Z</time>
      </trkpt>
      <trkpt lat="47.478083" lon="7.972275">
        <ele>421.195263</ele>
        <time>2021-11-07T12:13:49.121Z</time>
      </trkpt>
      <trkpt lat="47.478198" lon="7.972475">
        <ele>420.778134</ele>
        <time>2021-11-07T12:13:51.023Z</time>
      </trkpt>
      <trkpt lat="47.478213" lon="7.972508">
        <ele>420.714959</ele>
        <time>2021-11-07T12:13:51.278Z</time>
      </trkpt>
      <trkpt lat="47.478295" lon="7.972689">
        <ele>420.149161</ele>
        <time>2021-11-07T12:13:52.671Z</time>
      </trkpt>
      <trkpt lat="47.478424" lon="7.973015">
        <ele>419.077843</ele>
        <time>2021-11-07T12:13:55.246Z</time>
      </trkpt>
      <trkpt lat="47.478494" lon="7.973191">
        <ele>418.498707</ele>
        <time>2021-11-07T12:13:56.512Z</time>
      </trkpt>
      <trkpt lat="47.478606" lon="7.973396">
        <ele>417.751150</ele>
        <time>2021-11-07T12:13:58.335Z</time>
      </trkpt>
      <trkpt lat="47.478952" lon="7.973850">
        <ele>415.810672</ele>
        <time>2021-11-07T12:14:02.733Z</time>
      </trkpt>
      <trkpt lat="47.479061" lon="7.974014">
        <ele>415.158376</ele>
        <time>2021-11-07T12:14:04.236Z</time>
      </trkpt>
      <trkpt lat="47.479095" lon="7.974066">
        <ele>414.953194</ele>
        <time>2021-11-07T12:14:04.750Z</time>
      </trkpt>
      <trkpt lat="47.479172" lon="7.974215">
        <ele>414.421276</ele>
        <time>2021-11-07T12:14:05.963Z</time>
      </trkpt>
      <trkpt lat="47.479198" lon="7.974266">
        <ele>414.240113</ele>
        <time>2021-11-07T12:14:06.348Z</time>
      </trkpt>
      <trkpt lat="47.479256" lon="7.974388">
        <ele>413.817112</ele>
        <time>2021-11-07T12:14:07.318Z</time>
      </trkpt>
      <trkpt lat="47.479521" lon="7.975122">
        <ele>411.858312</ele>
        <time>2021-11-07T12:14:12.765Z</time>
      </trkpt>
      <trkpt lat="47.479548" lon="7.975187">
        <ele>411.694731</ele>
        <time>2021-11-07T12:14:13.233Z</time>
      </trkpt>
      <trkpt lat="47.479650" lon="7.975428">
        <ele>411.085060</ele>
        <time>2021-11-07T12:14:15.206Z</time>
      </trkpt>
      <trkpt lat="47.479662" lon="7.975458">
        <ele>411.010317</ele>
        <time>2021-11-07T12:14:15.450Z</time>
      </trkpt>
      <trkpt lat="47.479744" lon="7.975611">
        <ele>410.591655</ele>
        <time>2021-11-07T12:14:16.709Z</time>
      </trkpt>
      <trkpt lat="47.480019" lon="7.976061">
        <ele>409.290905</ele>
        <time>2021-11-07T12:14:20.980Z</time>
      </trkpt>
      <trkpt lat="47.479972" lon="7.976106">
        <ele>409.113311</ele>
        <time>2021-11-07T12:14:21.895Z</time>
      </trkpt>
      <trkpt lat="47.479953" lon="7.976158">
        <ele>408.986571</ele>
        <time>2021-11-07T12:14:22.602Z</time>
      </trkpt>
      <trkpt lat="47.479972" lon="7.976106">
        <ele>408.859831</ele>
        <time>2021-11-07T12:14:23.270Z</time>
      </trkpt>
      <trkpt lat="47.480019" lon="7.976061">
        <ele>408.682237</ele>
        <time>2021-11-07T12:14:24.172Z</time>
      </trkpt>
      <trkpt lat="47.480172" lon="7.976321">
        <ele>407.943094</ele>
        <time>2021-11-07T12:14:26.655Z</time>
      </trkpt>
      <trkpt lat="47.480258" lon="7.976521">
        <ele>407.434857</ele>
        <time>2021-11-07T12:14:28.490Z</time>
      </trkpt>
      <trkpt lat="47.480294" lon="7.976615">
        <ele>407.260989</ele>
        <time>2021-11-07T12:14:29.178Z</time>
      </trkpt>
      <trkpt lat="47.480540" lon="7.977249">
        <ele>406.164601</ele>
        <time>2021-11-07T12:14:34.496Z</time>
      </trkpt>
      <trkpt lat="47.481057" lon="7.978315">
        <ele>404.196854</ele>
        <time>2021-11-07T12:14:44.032Z</time>
      </trkpt>
      <trkpt lat="47.481075" lon="7.978353">
        <ele>404.127261</ele>
        <time>2021-11-07T12:14:44.322Z</time>
      </trkpt>
      <trkpt lat="47.481331" lon="7.978796">
        <ele>403.291442</ele>
        <time>2021-11-07T12:14:48.650Z</time>
      </trkpt>
      <trkpt lat="47.481417" lon="7.978989">
        <ele>403.032665</ele>
        <time>2021-11-07T12:14:50.481Z</time>
      </trkpt>
      <trkpt lat="47.481508" lon="7.979190">
        <ele>402.761847</ele>
        <time>2021-11-07T12:14:52.269Z</time>
      </trkpt>
      <trkpt lat="47.481627" lon="7.979494">
        <ele>402.368591</ele>
        <time>2021-11-07T12:14:55.091Z</time>
      </trkpt>
      <trkpt lat="47.481673" lon="7.979611">
        <ele>402.217072</ele>
        <time>2021-11-07T12:14:56.124Z</time>
      </trkpt>
      <trkpt lat="47.481757" lon="7.979824">
        <ele>401.941017</ele>
        <time>2021-11-07T12:14:58.000Z</time>
      </trkpt>
      <trkpt lat="47.481977" lon="7.980334">
        <ele>401.263747</ele>
        <time>2021-11-07T12:15:02.672Z</time>
      </trkpt>
      <trkpt lat="47.482025" lon="7.980480">
        <ele>401.082005</ele>
        <time>2021-11-07T12:15:03.881Z</time>
      </trkpt>
      <trkpt lat="47.482099" lon="7.980698">
        <ele>400.808927</ele>
        <time>2021-11-07T12:15:05.799Z</time>
      </trkpt>
      <trkpt lat="47.482159" lon="7.980898">
        <ele>400.563985</ele>
        <time>2021-11-07T12:15:07.475Z</time>
      </trkpt>
      <trkpt lat="47.482458" lon="7.981897">
        <ele>399.541562</ele>
        <time>2021-11-07T12:15:16.004Z</time>
      </trkpt>
      <trkpt lat="47.482472" lon="7.981944">
        <ele>399.494707</ele>
        <time>2021-11-07T12:15:16.381Z</time>
      </trkpt>
      <trkpt lat="47.482563" lon="7.982231">
        <ele>399.205507</ele>
        <time>2021-11-07T12:15:19.049Z</time>
      </trkpt>
      <trkpt lat="47.482594" lon="7.982339">
        <ele>399.098466</ele>
        <time>2021-11-07T12:15:19.952Z</time>
      </trkpt>
      <trkpt lat="47.482652" lon="7.982524">
        <ele>398.912424</ele>
        <time>2021-11-07T12:15:21.570Z</time>
      </trkpt>
      <trkpt lat="47.482704" lon="7.982687">
        <ele>398.747993</ele>
        <time>2021-11-07T12:15:23.142Z</time>
      </trkpt>
      <trkpt lat="47.482729" lon="7.982770">
        <ele>398.665097</ele>
        <time>2021-11-07T12:15:23.830Z</time>
      </trkpt>
      <trkpt lat="47.482840" lon="7.983205">
        <ele>398.240925</ele>
        <time>2021-11-07T12:15:27.652Z</time>
      </trkpt>
      <trkpt lat="47.482897" lon="7.983529">
        <ele>397.920551</ele>
        <time>2021-11-07T12:15:30.268Z</time>
      </trkpt>
      <trkpt lat="47.483001" lon="7.984129">
        <ele>397.218399</ele>
        <time>2021-11-07T12:15:35.078Z</time>
      </trkpt>
      <trkpt lat="47.483130" lon="7.984873">
        <ele>396.347715</ele>
        <time>2021-11-07T12:15:40.838Z</time>
      </trkpt>
      <trkpt lat="47.483153" lon="7.984996">
        <ele>396.203048</ele>
        <time>2021-11-07T12:15:41.808Z</time>
      </trkpt>
      <trkpt lat="47.483173" lon="7.985106">
        <ele>396.073923</ele>
        <time>2021-11-07T12:15:42.690Z</time>
      </trkpt>
      <trkpt lat="47.483274" lon="7.985553">
        <ele>395.539652</ele>
        <time>2021-11-07T12:15:46.273Z</time>
      </trkpt>
      <trkpt lat="47.483382" lon="7.985915">
        <ele>395.091098</ele>
        <time>2021-11-07T12:15:49.312Z</time>
      </trkpt>
      <trkpt lat="47.483462" lon="7.986151">
        <ele>394.753614</ele>
        <time>2021-11-07T12:15:51.317Z</time>
      </trkpt>
      <trkpt lat="47.483550" lon="7.986378">
        <ele>394.396825</ele>
        <time>2021-11-07T12:15:53.286Z</time>
      </trkpt>
      <trkpt lat="47.483775" lon="7.986910">
        <ele>393.541186</ele>
        <time>2021-11-07T12:15:57.947Z</time>
      </trkpt>
      <trkpt lat="47.484569" lon="7.988582">
        <ele>390.904056</ele>
        <time>2021-11-07T12:16:12.848Z</time>
      </trkpt>
      <trkpt lat="47.485480" lon="7.990116">
        <ele>388.815018</ele>
        <time>2021-11-07T12:16:28.879Z</time>
      </trkpt>
      <trkpt lat="47.485638" lon="7.990371">
        <ele>388.547544</ele>
        <time>2021-11-07T12:16:31.712Z</time>
      </trkpt>
      <trkpt lat="47.485781" lon="7.990604">
        <ele>388.391372</ele>
        <time>2021-11-07T12:16:34.290Z</time>
      </trkpt>
      <trkpt lat="47.486196" lon="7.991276">
        <ele>387.939683</ele>
        <time>2021-11-07T12:16:42.092Z</time>
      </trkpt>
      <trkpt lat="47.486319" lon="7.991471">
        <ele>387.807330</ele>
        <time>2021-11-07T12:16:44.471Z</time>
      </trkpt>
      <trkpt lat="47.486489" lon="7.991744">
        <ele>387.623134</ele>
        <time>2021-11-07T12:16:47.838Z</time>
      </trkpt>
      <trkpt lat="47.487177" lon="7.992841">
        <ele>386.694060</ele>
        <time>2021-11-07T12:17:01.453Z</time>
      </trkpt>
      <trkpt lat="47.487787" lon="7.993572">
        <ele>385.866499</ele>
        <time>2021-11-07T12:17:10.781Z</time>
      </trkpt>
      <trkpt lat="47.488382" lon="7.994128">
        <ele>384.963048</ele>
        <time>2021-11-07T12:17:18.825Z</time>
      </trkpt>
      <trkpt lat="47.488991" lon="7.994692">
        <ele>383.779881</ele>
        <time>2021-11-07T12:17:26.985Z</time>
      </trkpt>
      <trkpt lat="47.489245" lon="7.994928">
        <ele>383.285956</ele>
        <time>2021-11-07T12:17:30.386Z</time>
      </trkpt>
      <trkpt lat="47.490016" lon="7.995686">
        <ele>381.606870</ele>
        <time>2021-11-07T12:17:40.711Z</time>
      </trkpt>
      <trkpt lat="47.490899" lon="7.996664">
        <ele>379.382304</ele>
        <time>2021-11-07T12:17:52.849Z</time>
      </trkpt>
      <trkpt lat="47.490940" lon="7.996698">
        <ele>379.287510</ele>
        <time>2021-11-07T12:17:53.367Z</time>
      </trkpt>
      <trkpt lat="47.491068" lon="7.996814">
        <ele>378.984774</ele>
        <time>2021-11-07T12:17:54.935Z</time>
      </trkpt>
      <trkpt lat="47.491354" lon="7.997016">
        <ele>378.311829</ele>
        <time>2021-11-07T12:17:58.373Z</time>
      </trkpt>
      <trkpt lat="47.491886" lon="7.997365">
        <ele>377.054915</ele>
        <time>2021-11-07T12:18:04.622Z</time>
      </trkpt>
      <trkpt lat="47.492317" lon="7.997637">
        <ele>376.042879</ele>
        <time>2021-11-07T12:18:09.556Z</time>
      </trkpt>
      <trkpt lat="47.492477" lon="7.997747">
        <ele>375.661822</ele>
        <time>2021-11-07T12:18:11.480Z</time>
      </trkpt>
      <trkpt lat="47.492617" lon="7.997908">
        <ele>375.278872</ele>
        <time>2021-11-07T12:18:13.421Z</time>
      </trkpt>
      <trkpt lat="47.492722" lon="7.998050">
        <ele>374.971653</ele>
        <time>2021-11-07T12:18:15.079Z</time>
      </trkpt>
      <trkpt lat="47.492747" lon="7.998084">
        <ele>374.920076</ele>
        <time>2021-11-07T12:18:15.463Z</time>
      </trkpt>
      <trkpt lat="47.492877" lon="7.998257">
        <ele>374.754906</ele>
        <time>2021-11-07T12:18:17.384Z</time>
      </trkpt>
      <trkpt lat="47.493144" lon="7.998645">
        <ele>374.401382</ele>
        <time>2021-11-07T12:18:21.741Z</time>
      </trkpt>
      <trkpt lat="47.493296" lon="7.998833">
        <ele>374.214233</ele>
        <time>2021-11-07T12:18:24.205Z</time>
      </trkpt>
      <trkpt lat="47.493358" lon="7.998911">
        <ele>374.137354</ele>
        <time>2021-11-07T12:18:25.165Z</time>
      </trkpt>
      <trkpt lat="47.493433" lon="7.998996">
        <ele>374.048107</ele>
        <time>2021-11-07T12:18:26.365Z</time>
      </trkpt>
      <trkpt lat="47.493502" lon="7.999071">
        <ele>373.967226</ele>
        <time>2021-11-07T12:18:27.482Z</time>
      </trkpt>
      <trkpt lat="47.493603" lon="7.999152">
        <ele>373.858695</ele>
        <time>2021-11-07T12:18:28.922Z</time>
      </trkpt>
      <trkpt lat="47.493742" lon="7.999216">
        <ele>373.721164</ele>
        <time>2021-11-07T12:18:30.766Z</time>
      </trkpt>
      <trkpt lat="47.493937" lon="7.999285">
        <ele>373.531742</ele>
        <time>2021-11-07T12:18:33.399Z</time>
      </trkpt>
      <trkpt lat="47.493961" lon="7.999292">
        <ele>373.508631</ele>
        <time>2021-11-07T12:18:33.704Z</time>
      </trkpt>
      <trkpt lat="47.494272" lon="7.999381">
        <ele>373.226526</ele>
        <time>2021-11-07T12:18:38.137Z</time>
      </trkpt>
      <trkpt lat="47.494489" lon="7.999417">
        <ele>373.145213</ele>
        <time>2021-11-07T12:18:41.475Z</time>
      </trkpt>
      <trkpt lat="47.494643" lon="7.999430">
        <ele>373.087774</ele>
        <time>2021-11-07T12:18:43.825Z</time>
      </trkpt>
      <trkpt lat="47.494812" lon="7.999457">
        <ele>373.024475</ele>
        <time>2021-11-07T12:18:46.316Z</time>
      </trkpt>
      <trkpt lat="47.495197" lon="7.999589">
        <ele>372.877312</ele>
        <time>2021-11-07T12:18:51.861Z</time>
      </trkpt>
      <trkpt lat="47.495430" lon="7.999752">
        <ele>372.781343</ele>
        <time>2021-11-07T12:18:55.358Z</time>
      </trkpt>
      <trkpt lat="47.495718" lon="8.000005">
        <ele>372.656629</ele>
        <time>2021-11-07T12:18:59.777Z</time>
      </trkpt>
      <trkpt lat="47.496011" lon="8.000286">
        <ele>372.413365</ele>
        <time>2021-11-07T12:19:04.239Z</time>
      </trkpt>
      <trkpt lat="47.496234" lon="8.000584">
        <ele>371.994619</ele>
        <time>2021-11-07T12:19:07.905Z</time>
      </trkpt>
      <trkpt lat="47.496272" lon="8.000651">
        <ele>371.912244</ele>
        <time>2021-11-07T12:19:08.757Z</time>
      </trkpt>
      <trkpt lat="47.496280" lon="8.000664">
        <ele>371.895685</ele>
        <time>2021-11-07T12:19:08.892Z</time>
      </trkpt>
      <trkpt lat="47.496429" lon="8.000925">
        <ele>371.573920</ele>
        <time>2021-11-07T12:19:11.563Z</time>
      </trkpt>
      <trkpt lat="47.496517" lon="8.001077">
        <ele>371.385425</ele>
        <time>2021-11-07T12:19:13.270Z</time>
      </trkpt>
      <trkpt lat="47.496533" lon="8.001104">
        <ele>371.351606</ele>
        <time>2021-11-07T12:19:13.522Z</time>
      </trkpt>
      <trkpt lat="47.496535" lon="8.001108">
        <ele>371.346920</ele>
        <time>2021-11-07T12:19:13.562Z</time>
      </trkpt>
      <trkpt lat="47.496585" lon="8.001187">
        <ele>371.244986</ele>
        <time>2021-11-07T12:19:14.359Z</time>
      </trkpt>
      <trkpt lat="47.496820" lon="8.001547">
        <ele>370.773607</ele>
        <time>2021-11-07T12:19:18.252Z</time>
      </trkpt>
      <trkpt lat="47.496861" lon="8.001608">
        <ele>370.692582</ele>
        <time>2021-11-07T12:19:18.885Z</time>
      </trkpt>
      <trkpt lat="47.496908" lon="8.001680">
        <ele>370.598307</ele>
        <time>2021-11-07T12:19:19.649Z</time>
      </trkpt>
      <trkpt lat="47.496932" lon="8.001715">
        <ele>370.551348</ele>
        <time>2021-11-07T12:19:20.015Z</time>
      </trkpt>
      <trkpt lat="47.497207" lon="8.002132">
        <ele>369.983197</ele>
        <time>2021-11-07T12:19:24.315Z</time>
      </trkpt>
      <trkpt lat="47.497264" lon="8.002219">
        <ele>369.831127</ele>
        <time>2021-11-07T12:19:25.257Z</time>
      </trkpt>
      <trkpt lat="47.497307" lon="8.002279">
        <ele>369.721371</ele>
        <time>2021-11-07T12:19:25.890Z</time>
      </trkpt>
      <trkpt lat="47.497390" lon="8.002409">
        <ele>369.496930</ele>
        <time>2021-11-07T12:19:27.252Z</time>
      </trkpt>
      <trkpt lat="47.497540" lon="8.002634">
        <ele>369.100288</ele>
        <time>2021-11-07T12:19:29.652Z</time>
      </trkpt>
      <trkpt lat="47.497607" lon="8.002710">
        <ele>368.943511</ele>
        <time>2021-11-07T12:19:30.570Z</time>
      </trkpt>
      <trkpt lat="47.497951" lon="8.003094">
        <ele>368.143279</ele>
        <time>2021-11-07T12:19:35.442Z</time>
      </trkpt>
      <trkpt lat="47.498072" lon="8.003250">
        <ele>367.845250</ele>
        <time>2021-11-07T12:19:37.173Z</time>
      </trkpt>
      <trkpt lat="47.498166" lon="8.003383">
        <ele>367.603731</ele>
        <time>2021-11-07T12:19:38.652Z</time>
      </trkpt>
      <trkpt lat="47.498213" lon="8.003454">
        <ele>367.479004</ele>
        <time>2021-11-07T12:19:39.419Z</time>
      </trkpt>
      <trkpt lat="47.498450" lon="8.003874">
        <ele>366.792348</ele>
        <time>2021-11-07T12:19:43.507Z</time>
      </trkpt>
      <trkpt lat="47.498698" lon="8.004313">
        <ele>366.231129</ele>
        <time>2021-11-07T12:19:47.749Z</time>
      </trkpt>
      <trkpt lat="47.498753" lon="8.004410">
        <ele>366.110796</ele>
        <time>2021-11-07T12:19:48.659Z</time>
      </trkpt>
      <trkpt lat="47.498898" lon="8.004636">
        <ele>365.814634</ele>
        <time>2021-11-07T12:19:51.152Z</time>
      </trkpt>
      <trkpt lat="47.498965" lon="8.004710">
        <ele>365.697054</ele>
        <time>2021-11-07T12:19:52.094Z</time>
      </trkpt>
      <trkpt lat="47.499012" lon="8.004762">
        <ele>365.614523</ele>
        <time>2021-11-07T12:19:52.746Z</time>
      </trkpt>
      <trkpt lat="47.499183" lon="8.004875">
        <ele>365.351130</ele>
        <time>2021-11-07T12:19:55.023Z</time>
      </trkpt>
      <trkpt lat="47.499409" lon="8.005000">
        <ele>365.011794</ele>
        <time>2021-11-07T12:19:57.872Z</time>
      </trkpt>
      <trkpt lat="47.499496" lon="8.005059">
        <ele>364.877196</ele>
        <time>2021-11-07T12:19:59.042Z</time>
      </trkpt>
      <trkpt lat="47.499523" lon="8.005078">
        <ele>364.835147</ele>
        <time>2021-11-07T12:19:59.384Z</time>
      </trkpt>
      <trkpt lat="47.499770" lon="8.005268">
        <ele>364.443629</ele>
        <time>2021-11-07T12:20:02.707Z</time>
      </trkpt>
      <trkpt lat="47.499856" lon="8.005338">
        <ele>364.305588</ele>
        <time>2021-11-07T12:20:03.869Z</time>
      </trkpt>
      <trkpt lat="47.499880" lon="8.005358">
        <ele>364.266850</ele>
        <time>2021-11-07T12:20:04.183Z</time>
      </trkpt>
      <trkpt lat="47.499991" lon="8.005468">
        <ele>364.143451</ele>
        <time>2021-11-07T12:20:05.758Z</time>
      </trkpt>
      <trkpt lat="47.500009" lon="8.005488">
        <ele>364.130067</ele>
        <time>2021-11-07T12:20:06.049Z</time>
      </trkpt>
      <trkpt lat="47.500207" lon="8.005727">
        <ele>363.978147</ele>
        <time>2021-11-07T12:20:09.210Z</time>
      </trkpt>
      <trkpt lat="47.500252" lon="8.005784">
        <ele>363.942928</ele>
        <time>2021-11-07T12:20:09.995Z</time>
      </trkpt>
      <trkpt lat="47.500310" lon="8.005852">
        <ele>363.898932</ele>
        <time>2021-11-07T12:20:10.923Z</time>
      </trkpt>
      <trkpt lat="47.500540" lon="8.006079">
        <ele>363.734555</ele>
        <time>2021-11-07T12:20:14.489Z</time>
      </trkpt>
      <trkpt lat="47.500647" lon="8.006180">
        <ele>363.659094</ele>
        <time>2021-11-07T12:20:16.196Z</time>
      </trkpt>
      <trkpt lat="47.500764" lon="8.006290">
        <ele>363.576676</ele>
        <time>2021-11-07T12:20:17.960Z</time>
      </trkpt>
      <trkpt lat="47.500997" lon="8.006551">
        <ele>363.402927</ele>
        <time>2021-11-07T12:20:22.078Z</time>
      </trkpt>
      <trkpt lat="47.501276" lon="8.006911">
        <ele>363.182843</ele>
        <time>2021-11-07T12:20:27.506Z</time>
      </trkpt>
      <trkpt lat="47.501293" lon="8.006936">
        <ele>363.168594</ele>
        <time>2021-11-07T12:20:27.831Z</time>
      </trkpt>
      <trkpt lat="47.501496" lon="8.007247">
        <ele>362.929490</ele>
        <time>2021-11-07T12:20:31.785Z</time>
      </trkpt>
      <trkpt lat="47.501537" lon="8.007308">
        <ele>362.877028</ele>
        <time>2021-11-07T12:20:32.529Z</time>
      </trkpt>
      <trkpt lat="47.501943" lon="8.008353">
        <ele>362.142055</ele>
        <time>2021-11-07T12:20:43.002Z</time>
      </trkpt>
      <trkpt lat="47.502062" lon="8.008650">
        <ele>361.931526</ele>
        <time>2021-11-07T12:20:45.942Z</time>
      </trkpt>
      <trkpt lat="47.502158" lon="8.008808">
        <ele>361.801966</ele>
        <time>2021-11-07T12:20:47.485Z</time>
      </trkpt>
      <trkpt lat="47.502267" lon="8.008979">
        <ele>361.658627</ele>
        <time>2021-11-07T12:20:49.424Z</time>
      </trkpt>
      <trkpt lat="47.502773" lon="8.009928">
        <ele>359.973314</ele>
        <time>2021-11-07T12:20:58.704Z</time>
      </trkpt>
      <trkpt lat="47.502959" lon="8.010415">
        <ele>359.071106</ele>
        <time>2021-11-07T12:21:02.617Z</time>
      </trkpt>
      <trkpt lat="47.502991" lon="8.010405">
        <ele>358.993031</ele>
        <time>2021-11-07T12:21:02.910Z</time>
      </trkpt>
      <trkpt lat="47.503467" lon="8.010296">
        <ele>357.843201</ele>
        <time>2021-11-07T12:21:07.900Z</time>
      </trkpt>
      <trkpt lat="47.504018" lon="8.010447">
        <ele>356.653769</ele>
        <time>2021-11-07T12:21:13.832Z</time>
      </trkpt>
      <trkpt lat="47.504178" lon="8.010516">
        <ele>356.340366</ele>
        <time>2021-11-07T12:21:15.481Z</time>
      </trkpt>
      <trkpt lat="47.504256" lon="8.010566">
        <ele>356.180517</ele>
        <time>2021-11-07T12:21:16.365Z</time>
      </trkpt>
      <trkpt lat="47.504446" lon="8.010688">
        <ele>355.791039</ele>
        <time>2021-11-07T12:21:18.569Z</time>
      </trkpt>
      <trkpt lat="47.505237" lon="8.011270">
        <ele>354.129878</ele>
        <time>2021-11-07T12:21:28.570Z</time>
      </trkpt>
      <trkpt lat="47.505388" lon="8.011390">
        <ele>353.822981</ele>
        <time>2021-11-07T12:21:30.775Z</time>
      </trkpt>
      <trkpt lat="47.505808" lon="8.011926">
        <ele>353.921290</ele>
        <time>2021-11-07T12:21:38.597Z</time>
      </trkpt>
      <trkpt lat="47.506101" lon="8.012240">
        <ele>353.985417</ele>
        <time>2021-11-07T12:21:44.981Z</time>
      </trkpt>
      <trkpt lat="47.506308" lon="8.012429">
        <ele>354.028534</ele>
        <time>2021-11-07T12:21:49.307Z</time>
      </trkpt>
      <trkpt lat="47.506346" lon="8.012464">
        <ele>354.036468</ele>
        <time>2021-11-07T12:21:50.080Z</time>
      </trkpt>
      <trkpt lat="47.506389" lon="8.012514">
        <ele>354.046162</ele>
        <time>2021-11-07T12:21:51.031Z</time>
      </trkpt>
      <trkpt lat="47.506472" lon="8.012743">
        <ele>354.077285</ele>
        <time>2021-11-07T12:21:54.119Z</time>
      </trkpt>
      <trkpt lat="47.506492" lon="8.012798">
        <ele>354.084765</ele>
        <time>2021-11-07T12:21:54.922Z</time>
      </trkpt>
      <trkpt lat="47.506533" lon="8.012868">
        <ele>354.095860</ele>
        <time>2021-11-07T12:21:55.916Z</time>
      </trkpt>
      <trkpt lat="47.506633" lon="8.012949">
        <ele>354.116069</ele>
        <time>2021-11-07T12:21:57.789Z</time>
      </trkpt>
      <trkpt lat="47.506663" lon="8.012973">
        <ele>354.122115</ele>
        <time>2021-11-07T12:21:58.306Z</time>
      </trkpt>
      <trkpt lat="47.506697" lon="8.013001">
        <ele>354.129012</ele>
        <time>2021-11-07T12:21:58.894Z</time>
      </trkpt>
      <trkpt lat="47.506760" lon="8.013057">
        <ele>354.145256</ele>
        <time>2021-11-07T12:22:00.076Z</time>
      </trkpt>
      <trkpt lat="47.506825" lon="8.013107">
        <ele>354.185833</ele>
        <time>2021-11-07T12:22:01.271Z</time>
      </trkpt>
      <trkpt lat="47.506890" lon="8.013159">
        <ele>354.226759</ele>
        <time>2021-11-07T12:22:02.453Z</time>
      </trkpt>
      <trkpt lat="47.506929" lon="8.013191">
        <ele>354.251459</ele>
        <time>2021-11-07T12:22:03.101Z</time>
      </trkpt>
      <trkpt lat="47.506955" lon="8.013213">
        <ele>354.268048</ele>
        <time>2021-11-07T12:22:03.534Z</time>
      </trkpt>
      <trkpt lat="47.506989" lon="8.013246">
        <ele>354.290568</ele>
        <time>2021-11-07T12:22:04.132Z</time>
      </trkpt>
      <trkpt lat="47.507007" lon="8.013263">
        <ele>354.302395</ele>
        <time>2021-11-07T12:22:04.441Z</time>
      </trkpt>
      <trkpt lat="47.507038" lon="8.013279">
        <ele>354.320581</ele>
        <time>2021-11-07T12:22:04.966Z</time>
      </trkpt>
      <trkpt lat="47.507084" lon="8.013290">
        <ele>354.346392</ele>
        <time>2021-11-07T12:22:05.646Z</time>
      </trkpt>
      <trkpt lat="47.507106" lon="8.013288">
        <ele>354.358601</ele>
        <time>2021-11-07T12:22:06.010Z</time>
      </trkpt>
      <trkpt lat="47.507191" lon="8.013279">
        <ele>354.405806</ele>
        <time>2021-11-07T12:22:07.457Z</time>
      </trkpt>
      <trkpt lat="47.507231" lon="8.013292">
        <ele>354.428491</ele>
        <time>2021-11-07T12:22:08.142Z</time>
      </trkpt>
      <trkpt lat="47.507559" lon="8.013585">
        <ele>354.640695</ele>
        <time>2021-11-07T12:22:14.521Z</time>
      </trkpt>
      <trkpt lat="47.507595" lon="8.013616">
        <ele>354.663764</ele>
        <time>2021-11-07T12:22:15.118Z</time>
      </trkpt>
      <trkpt lat="47.508011" lon="8.013995">
        <ele>354.934339</ele>
        <time>2021-11-07T12:22:23.461Z</time>
      </trkpt>
      <trkpt lat="47.508075" lon="8.014054">
        <ele>354.976103</ele>
        <time>2021-11-07T12:22:24.769Z</time>
      </trkpt>
      <trkpt lat="47.508214" lon="8.014183">
        <ele>355.066978</ele>
        <time>2021-11-07T12:22:27.734Z</time>
      </trkpt>
      <trkpt lat="47.508281" lon="8.014277">
        <ele>355.118110</ele>
        <time>2021-11-07T12:22:29.240Z</time>
      </trkpt>
      <trkpt lat="47.508333" lon="8.014419">
        <ele>355.230948</ele>
        <time>2021-11-07T12:22:31.472Z</time>
      </trkpt>
      <trkpt lat="47.508375" lon="8.014403">
        <ele>355.285160</ele>
        <time>2021-11-07T12:22:32.519Z</time>
      </trkpt>
      <trkpt lat="47.508562" lon="8.014341">
        <ele>355.524706</ele>
        <time>2021-11-07T12:22:35.647Z</time>
      </trkpt>
      <trkpt lat="47.508646" lon="8.014383">
        <ele>355.635536</ele>
        <time>2021-11-07T12:22:37.530Z</time>
      </trkpt>
      <trkpt lat="47.508749" lon="8.014436">
        <ele>355.771844</ele>
        <time>2021-11-07T12:22:39.843Z</time>
      </trkpt>
      <trkpt lat="47.509142" lon="8.014737">
        <ele>356.324956</ele>
        <time>2021-11-07T12:22:48.692Z</time>
      </trkpt>
      <trkpt lat="47.509444" lon="8.014982">
        <ele>356.755430</ele>
        <time>2021-11-07T12:22:56.367Z</time>
      </trkpt>
      <trkpt lat="47.509546" lon="8.015060">
        <ele>356.898938</ele>
        <time>2021-11-07T12:22:58.555Z</time>
      </trkpt>
      <trkpt lat="47.509612" lon="8.015079">
        <ele>356.982985</ele>
        <time>2021-11-07T12:23:00.289Z</time>
      </trkpt>
      <trkpt lat="47.509686" lon="8.015069">
        <ele>357.075872</ele>
        <time>2021-11-07T12:23:02.172Z</time>
      </trkpt>
      <trkpt lat="47.509799" lon="8.014989">
        <ele>357.232446</ele>
        <time>2021-11-07T12:23:04.663Z</time>
      </trkpt>
      <trkpt lat="47.509823" lon="8.014904">
        <ele>357.310233</ele>
        <time>2021-11-07T12:23:05.788Z</time>
      </trkpt>
      <trkpt lat="47.509891" lon="8.014585">
        <ele>357.299128</ele>
        <time>2021-11-07T12:23:10.620Z</time>
      </trkpt>
      <trkpt lat="47.509928" lon="8.014411">
        <ele>357.235222</ele>
        <time>2021-11-07T12:23:12.574Z</time>
      </trkpt>
      <trkpt lat="47.510028" lon="8.013857">
        <ele>357.034330</ele>
        <time>2021-11-07T12:23:18.190Z</time>
      </trkpt>
      <trkpt lat="47.510139" lon="8.013722">
        <ele>356.959825</ele>
        <time>2021-11-07T12:23:20.543Z</time>
      </trkpt>
      <trkpt lat="47.510195" lon="8.013657">
        <ele>356.922919</ele>
        <time>2021-11-07T12:23:21.376Z</time>
      </trkpt>
      <trkpt lat="47.510610" lon="8.013245">
        <ele>356.663766</ele>
        <time>2021-11-07T12:23:27.193Z</time>
      </trkpt>
      <trkpt lat="47.511060" lon="8.012793">
        <ele>356.241898</ele>
        <time>2021-11-07T12:23:33.472Z</time>
      </trkpt>
      <trkpt lat="47.511153" lon="8.012630">
        <ele>356.019138</ele>
        <time>2021-11-07T12:23:34.962Z</time>
      </trkpt>
      <trkpt lat="47.511240" lon="8.012453">
        <ele>355.790600</ele>
        <time>2021-11-07T12:23:36.735Z</time>
      </trkpt>
      <trkpt lat="47.511339" lon="8.012189">
        <ele>355.475353</ele>
        <time>2021-11-07T12:23:38.850Z</time>
      </trkpt>
      <trkpt lat="47.511369" lon="8.012112">
        <ele>355.382550</ele>
        <time>2021-11-07T12:23:39.507Z</time>
      </trkpt>
      <trkpt lat="47.511725" lon="8.011067">
        <ele>354.160659</ele>
        <time>2021-11-07T12:23:48.269Z</time>
      </trkpt>
      <trkpt lat="47.511743" lon="8.011016">
        <ele>354.100585</ele>
        <time>2021-11-07T12:23:48.918Z</time>
      </trkpt>
      <trkpt lat="47.511819" lon="8.010960">
        <ele>353.969370</ele>
        <time>2021-11-07T12:23:50.325Z</time>
      </trkpt>
      <trkpt lat="47.512231" lon="8.010689">
        <ele>353.662613</ele>
        <time>2021-11-07T12:23:58.711Z</time>
      </trkpt>
      <trkpt lat="47.512828" lon="8.010284">
        <ele>353.638113</ele>
        <time>2021-11-07T12:24:13.162Z</time>
      </trkpt>
      <trkpt lat="47.513001" lon="8.010158">
        <ele>353.630919</ele>
        <time>2021-11-07T12:24:17.263Z</time>
      </trkpt>
      <trkpt lat="47.513230" lon="8.010045">
        <ele>353.621913</ele>
        <time>2021-11-07T12:24:22.514Z</time>
      </trkpt>
      <trkpt lat="47.513914" lon="8.009618">
        <ele>353.238706</ele>
        <time>2021-11-07T12:24:37.457Z</time>
      </trkpt>
      <trkpt lat="47.514240" lon="8.009205">
        <ele>352.702377</ele>
        <time>2021-11-07T12:24:45.242Z</time>
      </trkpt>
      <trkpt lat="47.514604" lon="8.008601">
        <ele>352.018945</ele>
        <time>2021-11-07T12:24:54.384Z</time>
      </trkpt>
      <trkpt lat="47.514868" lon="8.008490">
        <ele>351.675888</ele>
        <time>2021-11-07T12:24:58.745Z</time>
      </trkpt>
      <trkpt lat="47.515777" lon="8.008451">
        <ele>349.321620</ele>
        <time>2021-11-07T12:25:12.429Z</time>
      </trkpt>
      <trkpt lat="47.516279" lon="8.008426">
        <ele>347.758838</ele>
        <time>2021-11-07T12:25:19.614Z</time>
      </trkpt>
      <trkpt lat="47.516778" lon="8.008407">
        <ele>346.205759</ele>
        <time>2021-11-07T12:25:26.785Z</time>
      </trkpt>
      <trkpt lat="47.516850" lon="8.008403">
        <ele>345.981584</ele>
        <time>2021-11-07T12:25:27.785Z</time>
      </trkpt>
      <trkpt lat="47.516886" lon="8.008468">
        <ele>345.804944</ele>
        <time>2021-11-07T12:25:28.545Z</time>
      </trkpt>
      <trkpt lat="47.516966" lon="8.008595">
        <ele>345.547366</ele>
        <time>2021-11-07T12:25:30.325Z</time>
      </trkpt>
      <trkpt lat="47.517345" lon="8.009165">
        <ele>344.429436</ele>
        <time>2021-11-07T12:25:38.319Z</time>
      </trkpt>
      <trkpt lat="47.517409" lon="8.009275">
        <ele>344.226517</ele>
        <time>2021-11-07T12:25:39.735Z</time>
      </trkpt>
      <trkpt lat="47.517508" lon="8.009440">
        <ele>343.918052</ele>
        <time>2021-11-07T12:25:42.157Z</time>
      </trkpt>
      <trkpt lat="47.517564" lon="8.009350">
        <ele>343.747022</ele>
        <time>2021-11-07T12:25:43.449Z</time>
      </trkpt>
      <trkpt lat="47.517615" lon="8.009232">
        <ele>343.551225</ele>
        <time>2021-11-07T12:25:44.810Z</time>
      </trkpt>
      <trkpt lat="47.517791" lon="8.009018">
        <ele>343.079945</ele>
        <time>2021-11-07T12:25:48.677Z</time>
      </trkpt>
      <trkpt lat="47.517851" lon="8.008946">
        <ele>342.920124</ele>
        <time>2021-11-07T12:25:49.839Z</time>
      </trkpt>
      <trkpt lat="47.518239" lon="8.008485">
        <ele>342.105101</ele>
        <time>2021-11-07T12:25:58.389Z</time>
      </trkpt>
      <trkpt lat="47.518926" lon="8.007732">
        <ele>342.902698</ele>
        <time>2021-11-07T12:26:17.119Z</time>
      </trkpt>
      <trkpt lat="47.520956" lon="8.005345">
        <ele>346.750324</ele>
        <time>2021-11-07T12:27:29.893Z</time>
      </trkpt>
      <trkpt lat="47.521277" lon="8.005104">
        <ele>346.797149</ele>
        <time>2021-11-07T12:27:38.561Z</time>
      </trkpt>
      <trkpt lat="47.521327" lon="8.004951">
        <ele>346.759407</ele>
        <time>2021-11-07T12:27:41.105Z</time>
      </trkpt>
      <trkpt lat="47.521214" lon="8.004538">
        <ele>346.660458</ele>
        <time>2021-11-07T12:27:47.346Z</time>
      </trkpt>
      <trkpt lat="47.521488" lon="8.004236">
        <ele>346.548146</ele>
        <time>2021-11-07T12:27:53.526Z</time>
      </trkpt>
      <trkpt lat="47.521691" lon="8.004044">
        <ele>346.468943</ele>
        <time>2021-11-07T12:27:57.974Z</time>
      </trkpt>
      <trkpt lat="47.521941" lon="8.003805">
        <ele>346.371098</ele>
        <time>2021-11-07T12:28:02.909Z</time>
      </trkpt>
      <trkpt lat="47.522286" lon="8.003405">
        <ele>345.949793</ele>
        <time>2021-11-07T12:28:10.191Z</time>
      </trkpt>
      <trkpt lat="47.522593" lon="8.003040">
        <ele>345.315573</ele>
        <time>2021-11-07T12:28:16.335Z</time>
      </trkpt>
      <trkpt lat="47.522812" lon="8.002772">
        <ele>344.857910</ele>
        <time>2021-11-07T12:28:20.736Z</time>
      </trkpt>
      <trkpt lat="47.526232" lon="7.998874">
        <ele>338.314745</ele>
        <time>2021-11-07T12:29:31.461Z</time>
      </trkpt>
      <trkpt lat="47.526462" lon="7.998465">
        <ele>338.039175</ele>
        <time>2021-11-07T12:29:38.011Z</time>
      </trkpt>
      <trkpt lat="47.526659" lon="7.997896">
        <ele>337.982290</ele>
        <time>2021-11-07T12:29:46.022Z</time>
      </trkpt>
      <trkpt lat="47.527005" lon="7.997436">
        <ele>337.921031</ele>
        <time>2021-11-07T12:29:55.428Z</time>
      </trkpt>
      <trkpt lat="47.527061" lon="7.997361">
        <ele>337.911084</ele>
        <time>2021-11-07T12:29:57.160Z</time>
      </trkpt>
      <trkpt lat="47.527239" lon="7.997118">
        <ele>337.879189</ele>
        <time>2021-11-07T12:30:02.217Z</time>
      </trkpt>
      <trkpt lat="47.527390" lon="7.996879">
        <ele>337.850072</ele>
        <time>2021-11-07T12:30:07.884Z</time>
      </trkpt>
      <trkpt lat="47.528522" lon="7.994788">
        <ele>336.895341</ele>
        <time>2021-11-07T12:30:43.521Z</time>
      </trkpt>
      <trkpt lat="47.528851" lon="7.994185">
        <ele>335.788001</ele>
        <time>2021-11-07T12:30:51.351Z</time>
      </trkpt>
      <trkpt lat="47.529180" lon="7.994531">
        <ele>334.611000</ele>
        <time>2021-11-07T12:30:57.183Z</time>
      </trkpt>
      <trkpt lat="47.529261" lon="7.994394">
        <ele>334.252352</ele>
        <time>2021-11-07T12:30:58.439Z</time>
      </trkpt>
      <trkpt lat="47.529350" lon="7.994228">
        <ele>333.834878</ele>
        <time>2021-11-07T12:30:59.865Z</time>
      </trkpt>
      <trkpt lat="47.530141" lon="7.992757">
        <ele>331.116673</ele>
        <time>2021-11-07T12:31:12.621Z</time>
      </trkpt>
      <trkpt lat="47.530495" lon="7.992103">
        <ele>330.615630</ele>
        <time>2021-11-07T12:31:20.522Z</time>
      </trkpt>
      <trkpt lat="47.530776" lon="7.991586">
        <ele>330.218906</ele>
        <time>2021-11-07T12:31:27.849Z</time>
      </trkpt>
      <trkpt lat="47.530933" lon="7.991310">
        <ele>330.003183</ele>
        <time>2021-11-07T12:31:31.507Z</time>
      </trkpt>
      <trkpt lat="47.530979" lon="7.991211">
        <ele>329.974974</ele>
        <time>2021-11-07T12:31:33.038Z</time>
      </trkpt>
      <trkpt lat="47.531363" lon="7.990436">
        <ele>330.519192</ele>
        <time>2021-11-07T12:31:44.387Z</time>
      </trkpt>
      <trkpt lat="47.531667" lon="7.989873">
        <ele>330.927312</ele>
        <time>2021-11-07T12:31:54.206Z</time>
      </trkpt>
      <trkpt lat="47.531823" lon="7.989607">
        <ele>331.126778</ele>
        <time>2021-11-07T12:31:58.899Z</time>
      </trkpt>
      <trkpt lat="47.531897" lon="7.989450">
        <ele>331.235174</ele>
        <time>2021-11-07T12:32:01.426Z</time>
      </trkpt>
      <trkpt lat="47.532014" lon="7.989225">
        <ele>331.395951</ele>
        <time>2021-11-07T12:32:05.192Z</time>
      </trkpt>
      <trkpt lat="47.532299" lon="7.988577">
        <ele>331.011752</ele>
        <time>2021-11-07T12:32:13.709Z</time>
      </trkpt>
      <trkpt lat="47.532373" lon="7.988399">
        <ele>330.868514</ele>
        <time>2021-11-07T12:32:15.976Z</time>
      </trkpt>
      <trkpt lat="47.532401" lon="7.988331">
        <ele>330.813937</ele>
        <time>2021-11-07T12:32:16.817Z</time>
      </trkpt>
      <trkpt lat="47.532464" lon="7.988171">
        <ele>330.687019</ele>
        <time>2021-11-07T12:32:18.189Z</time>
      </trkpt>
      <trkpt lat="47.532544" lon="7.987973">
        <ele>330.528906</ele>
        <time>2021-11-07T12:32:20.153Z</time>
      </trkpt>
      <trkpt lat="47.532621" lon="7.987826">
        <ele>330.401419</ele>
        <time>2021-11-07T12:32:21.515Z</time>
      </trkpt>
      <trkpt lat="47.532716" lon="7.987667">
        <ele>330.255934</ele>
        <time>2021-11-07T12:32:23.170Z</time>
      </trkpt>
      <trkpt lat="47.532879" lon="7.987447">
        <ele>330.032123</ele>
        <time>2021-11-07T12:32:25.581Z</time>
      </trkpt>
      <trkpt lat="47.533114" lon="7.987128">
        <ele>329.708610</ele>
        <time>2021-11-07T12:32:29.115Z</time>
      </trkpt>
      <trkpt lat="47.533142" lon="7.987165">
        <ele>329.670527</ele>
        <time>2021-11-07T12:32:29.456Z</time>
      </trkpt>
      <trkpt lat="47.533195" lon="7.987215">
        <ele>329.565725</ele>
        <time>2021-11-07T12:32:30.172Z</time>
      </trkpt>
      <trkpt lat="47.533509" lon="7.987411">
        <ele>328.742224</ele>
        <time>2021-11-07T12:32:33.772Z</time>
      </trkpt>
      <trkpt lat="47.533728" lon="7.987557">
        <ele>328.161810</ele>
        <time>2021-11-07T12:32:36.340Z</time>
      </trkpt>
      <trkpt lat="47.534072" lon="7.987749">
        <ele>327.273375</ele>
        <time>2021-11-07T12:32:40.211Z</time>
      </trkpt>
      <trkpt lat="47.534280" lon="7.987862">
        <ele>326.737940</ele>
        <time>2021-11-07T12:32:42.508Z</time>
      </trkpt>
      <trkpt lat="47.534363" lon="7.987895">
        <ele>326.530248</ele>
        <time>2021-11-07T12:32:43.386Z</time>
      </trkpt>
      <trkpt lat="47.534466" lon="7.987626">
        <ele>326.025654</ele>
        <time>2021-11-07T12:32:45.550Z</time>
      </trkpt>
      <trkpt lat="47.534590" lon="7.987330">
        <ele>325.457261</ele>
        <time>2021-11-07T12:32:48.027Z</time>
      </trkpt>
      <trkpt lat="47.534974" lon="7.986602">
        <ele>324.782586</ele>
        <time>2021-11-07T12:32:55.007Z</time>
      </trkpt>
      <trkpt lat="47.535270" lon="7.985985">
        <ele>324.315227</ele>
        <time>2021-11-07T12:33:01.508Z</time>
      </trkpt>
      <trkpt lat="47.535614" lon="7.985212">
        <ele>323.743574</ele>
        <time>2021-11-07T12:33:09.989Z</time>
      </trkpt>
      <trkpt lat="47.536026" lon="7.984206">
        <ele>324.615332</ele>
        <time>2021-11-07T12:33:22.730Z</time>
      </trkpt>
      <trkpt lat="47.536199" lon="7.983737">
        <ele>325.125812</ele>
        <time>2021-11-07T12:33:29.832Z</time>
      </trkpt>
      <trkpt lat="47.536410" lon="7.983244">
        <ele>325.683361</ele>
        <time>2021-11-07T12:33:38.988Z</time>
      </trkpt>
      <trkpt lat="47.536530" lon="7.982859">
        <ele>326.088399</ele>
        <time>2021-11-07T12:33:46.326Z</time>
      </trkpt>
      <trkpt lat="47.536764" lon="7.982225">
        <ele>327.381266</ele>
        <time>2021-11-07T12:33:59.996Z</time>
      </trkpt>
      <trkpt lat="47.536775" lon="7.982096">
        <ele>327.632493</ele>
        <time>2021-11-07T12:34:02.409Z</time>
      </trkpt>
      <trkpt lat="47.536842" lon="7.981878">
        <ele>328.095291</ele>
        <time>2021-11-07T12:34:07.150Z</time>
      </trkpt>
      <trkpt lat="47.536896" lon="7.981697">
        <ele>328.477633</ele>
        <time>2021-11-07T12:34:10.987Z</time>
      </trkpt>
      <trkpt lat="47.536959" lon="7.981602">
        <ele>328.734927</ele>
        <time>2021-11-07T12:34:13.361Z</time>
      </trkpt>
      <trkpt lat="47.537107" lon="7.981082">
        <ele>329.825268</ele>
        <time>2021-11-07T12:34:24.083Z</time>
      </trkpt>
      <trkpt lat="47.537461" lon="7.980118">
        <ele>331.390920</ele>
        <time>2021-11-07T12:34:42.637Z</time>
      </trkpt>
      <trkpt lat="47.537583" lon="7.979760">
        <ele>331.459683</ele>
        <time>2021-11-07T12:34:48.640Z</time>
      </trkpt>
      <trkpt lat="47.537955" lon="7.978125">
        <ele>331.755524</ele>
        <time>2021-11-07T12:35:04.983Z</time>
      </trkpt>
      <trkpt lat="47.538107" lon="7.977240">
        <ele>330.984121</ele>
        <time>2021-11-07T12:35:11.889Z</time>
      </trkpt>
      <trkpt lat="47.538242" lon="7.976347">
        <ele>329.910896</ele>
        <time>2021-11-07T12:35:18.766Z</time>
      </trkpt>
      <trkpt lat="47.538706" lon="7.974459">
        <ele>327.260092</ele>
        <time>2021-11-07T12:35:33.695Z</time>
      </trkpt>
      <trkpt lat="47.539262" lon="7.971768">
        <ele>322.935280</ele>
        <time>2021-11-07T12:35:54.039Z</time>
      </trkpt>
      <trkpt lat="47.539783" lon="7.969587">
        <ele>319.474851</ele>
        <time>2021-11-07T12:36:10.519Z</time>
      </trkpt>
      <trkpt lat="47.540214" lon="7.967628">
        <ele>317.018848</ele>
        <time>2021-11-07T12:36:26.319Z</time>
      </trkpt>
      <trkpt lat="47.540896" lon="7.964711">
        <ele>315.084787</ele>
        <time>2021-11-07T12:36:52.425Z</time>
      </trkpt>
      <trkpt lat="47.541095" lon="7.964204">
        <ele>314.751034</ele>
        <time>2021-11-07T12:36:57.461Z</time>
      </trkpt>
      <trkpt lat="47.541169" lon="7.964123">
        <ele>314.673468</ele>
        <time>2021-11-07T12:36:58.419Z</time>
      </trkpt>
      <trkpt lat="47.541129" lon="7.964008">
        <ele>314.599846</ele>
        <time>2021-11-07T12:36:59.862Z</time>
      </trkpt>
      <trkpt lat="47.541019" lon="7.963815">
        <ele>314.456101</ele>
        <time>2021-11-07T12:37:02.212Z</time>
      </trkpt>
      <trkpt lat="47.541123" lon="7.963520">
        <ele>314.266706</ele>
        <time>2021-11-07T12:37:04.945Z</time>
      </trkpt>
      <trkpt lat="47.541217" lon="7.963187">
        <ele>314.061300</ele>
        <time>2021-11-07T12:37:07.847Z</time>
      </trkpt>
      <trkpt lat="47.541258" lon="7.962975">
        <ele>313.935801</ele>
        <time>2021-11-07T12:37:10.242Z</time>
      </trkpt>
      <trkpt lat="47.541293" lon="7.962730">
        <ele>313.664063</ele>
        <time>2021-11-07T12:37:12.226Z</time>
      </trkpt>
      <trkpt lat="47.541308" lon="7.962513">
        <ele>313.377172</ele>
        <time>2021-11-07T12:37:14.251Z</time>
      </trkpt>
      <trkpt lat="47.541314" lon="7.962377">
        <ele>313.197922</ele>
        <time>2021-11-07T12:37:15.604Z</time>
      </trkpt>
      <trkpt lat="47.541316" lon="7.962197">
        <ele>312.961154</ele>
        <time>2021-11-07T12:37:16.948Z</time>
      </trkpt>
      <trkpt lat="47.541242" lon="7.961294">
        <ele>311.764805</ele>
        <time>2021-11-07T12:37:23.972Z</time>
      </trkpt>
      <trkpt lat="47.541153" lon="7.960814">
        <ele>311.110126</ele>
        <time>2021-11-07T12:37:27.502Z</time>
      </trkpt>
      <trkpt lat="47.541060" lon="7.960321">
        <ele>310.436888</ele>
        <time>2021-11-07T12:37:31.092Z</time>
      </trkpt>
      <trkpt lat="47.541027" lon="7.959944">
        <ele>309.557472</ele>
        <time>2021-11-07T12:37:33.587Z</time>
      </trkpt>
      <trkpt lat="47.541019" lon="7.959792">
        <ele>309.188138</ele>
        <time>2021-11-07T12:37:34.643Z</time>
      </trkpt>
      <trkpt lat="47.541012" lon="7.959578">
        <ele>308.669118</ele>
        <time>2021-11-07T12:37:36.118Z</time>
      </trkpt>
      <trkpt lat="47.541012" lon="7.959578">
        <ele>308.669118</ele>
        <time>2021-11-07T12:37:36.130Z</time>
      </trkpt>
      <trkpt lat="47.541016" lon="7.959388">
        <ele>308.208622</ele>
        <time>2021-11-07T12:37:37.384Z</time>
      </trkpt>
      <trkpt lat="47.541081" lon="7.958828">
        <ele>306.832125</ele>
        <time>2021-11-07T12:37:41.153Z</time>
      </trkpt>
      <trkpt lat="47.541226" lon="7.958150">
        <ele>305.109232</ele>
        <time>2021-11-07T12:37:45.914Z</time>
      </trkpt>
      <trkpt lat="47.541305" lon="7.957787">
        <ele>304.185307</ele>
        <time>2021-11-07T12:37:48.398Z</time>
      </trkpt>
      <trkpt lat="47.541355" lon="7.957559">
        <ele>303.750465</ele>
        <time>2021-11-07T12:37:50.100Z</time>
      </trkpt>
      <trkpt lat="47.541450" lon="7.956897">
        <ele>302.839046</ele>
        <time>2021-11-07T12:37:54.734Z</time>
      </trkpt>
      <trkpt lat="47.541464" lon="7.956698">
        <ele>302.569607</ele>
        <time>2021-11-07T12:37:56.139Z</time>
      </trkpt>
      <trkpt lat="47.541533" lon="7.955526">
        <ele>300.985318</ele>
        <time>2021-11-07T12:38:04.973Z</time>
      </trkpt>
      <trkpt lat="47.541554" lon="7.955311">
        <ele>300.692769</ele>
        <time>2021-11-07T12:38:07.011Z</time>
      </trkpt>
      <trkpt lat="47.541735" lon="7.953892">
        <ele>300.396884</ele>
        <time>2021-11-07T12:38:21.220Z</time>
      </trkpt>
      <trkpt lat="47.541773" lon="7.953695">
        <ele>300.405852</ele>
        <time>2021-11-07T12:38:23.467Z</time>
      </trkpt>
      <trkpt lat="47.541791" lon="7.953601">
        <ele>300.410129</ele>
        <time>2021-11-07T12:38:24.502Z</time>
      </trkpt>
      <trkpt lat="47.541991" lon="7.952667">
        <ele>300.453018</ele>
        <time>2021-11-07T12:38:35.358Z</time>
      </trkpt>
      <trkpt lat="47.542169" lon="7.951815">
        <ele>300.566464</ele>
        <time>2021-11-07T12:38:45.096Z</time>
      </trkpt>
      <trkpt lat="47.542192" lon="7.951713">
        <ele>300.582673</ele>
        <time>2021-11-07T12:38:46.359Z</time>
      </trkpt>
      <trkpt lat="47.542357" lon="7.951037">
        <ele>300.691015</ele>
        <time>2021-11-07T12:38:53.823Z</time>
      </trkpt>
      <trkpt lat="47.542444" lon="7.950687">
        <ele>300.747230</ele>
        <time>2021-11-07T12:38:57.654Z</time>
      </trkpt>
      <trkpt lat="47.542546" lon="7.950274">
        <ele>300.813512</ele>
        <time>2021-11-07T12:39:02.001Z</time>
      </trkpt>
      <trkpt lat="47.542554" lon="7.950231">
        <ele>300.820235</ele>
        <time>2021-11-07T12:39:02.487Z</time>
      </trkpt>
      <trkpt lat="47.542560" lon="7.950202">
        <ele>300.824806</ele>
        <time>2021-11-07T12:39:02.821Z</time>
      </trkpt>
      <trkpt lat="47.542609" lon="7.949914">
        <ele>300.885417</ele>
        <time>2021-11-07T12:39:05.820Z</time>
      </trkpt>
      <trkpt lat="47.542719" lon="7.949175">
        <ele>301.282878</ele>
        <time>2021-11-07T12:39:13.723Z</time>
      </trkpt>
      <trkpt lat="47.542826" lon="7.948298">
        <ele>301.750956</ele>
        <time>2021-11-07T12:39:24.666Z</time>
      </trkpt>
      <trkpt lat="47.542838" lon="7.948225">
        <ele>301.790417</ele>
        <time>2021-11-07T12:39:25.494Z</time>
      </trkpt>
      <trkpt lat="47.542875" lon="7.948001">
        <ele>301.911536</ele>
        <time>2021-11-07T12:39:28.377Z</time>
      </trkpt>
      <trkpt lat="47.542928" lon="7.947798">
        <ele>302.025852</ele>
        <time>2021-11-07T12:39:31.300Z</time>
      </trkpt>
      <trkpt lat="47.542957" lon="7.947651">
        <ele>302.106288</ele>
        <time>2021-11-07T12:39:33.008Z</time>
      </trkpt>
      <trkpt lat="47.543050" lon="7.947411">
        <ele>302.251632</ele>
        <time>2021-11-07T12:39:37.372Z</time>
      </trkpt>
      <trkpt lat="47.543087" lon="7.947317">
        <ele>302.376621</ele>
        <time>2021-11-07T12:39:38.651Z</time>
      </trkpt>
      <trkpt lat="47.543092" lon="7.947257">
        <ele>302.455049</ele>
        <time>2021-11-07T12:39:39.441Z</time>
      </trkpt>
      <trkpt lat="47.543097" lon="7.947186">
        <ele>302.547656</ele>
        <time>2021-11-07T12:39:40.291Z</time>
      </trkpt>
      <trkpt lat="47.543086" lon="7.947052">
        <ele>302.722773</ele>
        <time>2021-11-07T12:39:42.121Z</time>
      </trkpt>
      <trkpt lat="47.543056" lon="7.946935">
        <ele>302.885137</ele>
        <time>2021-11-07T12:39:44.487Z</time>
      </trkpt>
      <trkpt lat="47.543045" lon="7.946881">
        <ele>302.958310</ele>
        <time>2021-11-07T12:39:45.599Z</time>
      </trkpt>
      <trkpt lat="47.542982" lon="7.946547">
        <ele>303.408202</ele>
        <time>2021-11-07T12:39:50.199Z</time>
      </trkpt>
      <trkpt lat="47.542974" lon="7.946495">
        <ele>303.477391</ele>
        <time>2021-11-07T12:39:51.412Z</time>
      </trkpt>
      <trkpt lat="47.542960" lon="7.946400">
        <ele>303.603536</ele>
        <time>2021-11-07T12:39:53.248Z</time>
      </trkpt>
      <trkpt lat="47.542938" lon="7.946069">
        <ele>304.035016</ele>
        <time>2021-11-07T12:39:58.043Z</time>
      </trkpt>
      <trkpt lat="47.542916" lon="7.945730">
        <ele>304.476825</ele>
        <time>2021-11-07T12:40:03.825Z</time>
      </trkpt>
      <trkpt lat="47.542913" lon="7.945267">
        <ele>305.077498</ele>
        <time>2021-11-07T12:40:11.311Z</time>
      </trkpt>
      <trkpt lat="47.543007" lon="7.943867">
        <ele>306.149597</ele>
        <time>2021-11-07T12:40:32.151Z</time>
      </trkpt>
      <trkpt lat="47.543161" lon="7.942213">
        <ele>306.937242</ele>
        <time>2021-11-07T12:40:50.804Z</time>
      </trkpt>
      <trkpt lat="47.543415" lon="7.940780">
        <ele>305.823013</ele>
        <time>2021-11-07T12:41:02.961Z</time>
      </trkpt>
      <trkpt lat="47.543435" lon="7.940670">
        <ele>305.729102</ele>
        <time>2021-11-07T12:41:03.791Z</time>
      </trkpt>
      <trkpt lat="47.543826" lon="7.939433">
        <ele>304.511306</ele>
        <time>2021-11-07T12:41:14.227Z</time>
      </trkpt>
      <trkpt lat="47.544472" lon="7.937932">
        <ele>302.280917</ele>
        <time>2021-11-07T12:41:27.437Z</time>
      </trkpt>
      <trkpt lat="47.544705" lon="7.937395">
        <ele>301.481087</ele>
        <time>2021-11-07T12:41:32.277Z</time>
      </trkpt>
      <trkpt lat="47.544903" lon="7.936917">
        <ele>300.890492</ele>
        <time>2021-11-07T12:41:36.538Z</time>
      </trkpt>
      <trkpt lat="47.545074" lon="7.936484">
        <ele>300.368241</ele>
        <time>2021-11-07T12:41:40.368Z</time>
      </trkpt>
      <trkpt lat="47.545457" lon="7.935110">
        <ele>298.820692</ele>
        <time>2021-11-07T12:41:51.737Z</time>
      </trkpt>
      <trkpt lat="47.545674" lon="7.933625">
        <ele>298.623091</ele>
        <time>2021-11-07T12:42:04.814Z</time>
      </trkpt>
      <trkpt lat="47.545702" lon="7.933290">
        <ele>298.612241</ele>
        <time>2021-11-07T12:42:08.393Z</time>
      </trkpt>
      <trkpt lat="47.545724" lon="7.932758">
        <ele>298.595107</ele>
        <time>2021-11-07T12:42:14.660Z</time>
      </trkpt>
      <trkpt lat="47.545723" lon="7.932333">
        <ele>298.585250</ele>
        <time>2021-11-07T12:42:20.096Z</time>
      </trkpt>
      <trkpt lat="47.545721" lon="7.931992">
        <ele>299.027415</ele>
        <time>2021-11-07T12:42:24.701Z</time>
      </trkpt>
      <trkpt lat="47.545696" lon="7.931497">
        <ele>299.671037</ele>
        <time>2021-11-07T12:42:31.906Z</time>
      </trkpt>
      <trkpt lat="47.545661" lon="7.930955">
        <ele>300.377016</ele>
        <time>2021-11-07T12:42:40.601Z</time>
      </trkpt>
      <trkpt lat="47.545563" lon="7.929641">
        <ele>302.032957</ele>
        <time>2021-11-07T12:43:02.946Z</time>
      </trkpt>
      <trkpt lat="47.545475" lon="7.928419">
        <ele>301.927051</ele>
        <time>2021-11-07T12:43:19.249Z</time>
      </trkpt>
      <trkpt lat="47.545421" lon="7.927686">
        <ele>301.863508</ele>
        <time>2021-11-07T12:43:25.353Z</time>
      </trkpt>
      <trkpt lat="47.545406" lon="7.927306">
        <ele>301.830705</ele>
        <time>2021-11-07T12:43:28.256Z</time>
      </trkpt>
      <trkpt lat="47.545407" lon="7.927001">
        <ele>301.736563</ele>
        <time>2021-11-07T12:43:30.543Z</time>
      </trkpt>
      <trkpt lat="47.545409" lon="7.926773">
        <ele>301.190383</ele>
        <time>2021-11-07T12:43:32.172Z</time>
      </trkpt>
      <trkpt lat="47.545417" lon="7.925848">
        <ele>298.974522</ele>
        <time>2021-11-07T12:43:38.507Z</time>
      </trkpt>
      <trkpt lat="47.545446" lon="7.925350">
        <ele>297.777219</ele>
        <time>2021-11-07T12:43:41.799Z</time>
      </trkpt>
      <trkpt lat="47.545466" lon="7.924880">
        <ele>296.649181</ele>
        <time>2021-11-07T12:43:44.852Z</time>
      </trkpt>
      <trkpt lat="47.545481" lon="7.924396">
        <ele>295.488622</ele>
        <time>2021-11-07T12:43:47.936Z</time>
      </trkpt>
      <trkpt lat="47.545521" lon="7.923709">
        <ele>294.275377</ele>
        <time>2021-11-07T12:43:52.461Z</time>
      </trkpt>
      <trkpt lat="47.545536" lon="7.923407">
        <ele>293.750385</ele>
        <time>2021-11-07T12:43:54.609Z</time>
      </trkpt>
      <trkpt lat="47.545553" lon="7.923142">
        <ele>293.288885</ele>
        <time>2021-11-07T12:43:56.440Z</time>
      </trkpt>
      <trkpt lat="47.545587" lon="7.922895">
        <ele>292.851849</ele>
        <time>2021-11-07T12:43:58.374Z</time>
      </trkpt>
      <trkpt lat="47.545641" lon="7.922610">
        <ele>292.338649</ele>
        <time>2021-11-07T12:44:00.519Z</time>
      </trkpt>
      <trkpt lat="47.545690" lon="7.922369">
        <ele>291.902287</ele>
        <time>2021-11-07T12:44:02.526Z</time>
      </trkpt>
      <trkpt lat="47.545699" lon="7.922325">
        <ele>291.822579</ele>
        <time>2021-11-07T12:44:02.820Z</time>
      </trkpt>
      <trkpt lat="47.545714" lon="7.922249">
        <ele>291.685301</ele>
        <time>2021-11-07T12:44:03.410Z</time>
      </trkpt>
      <trkpt lat="47.545778" lon="7.921947">
        <ele>291.136529</ele>
        <time>2021-11-07T12:44:06.113Z</time>
      </trkpt>
      <trkpt lat="47.545810" lon="7.921755">
        <ele>290.802549</ele>
        <time>2021-11-07T12:44:07.593Z</time>
      </trkpt>
      <trkpt lat="47.545881" lon="7.921096">
        <ele>290.585454</ele>
        <time>2021-11-07T12:44:13.055Z</time>
      </trkpt>
      <trkpt lat="47.545913" lon="7.920765">
        <ele>290.476677</ele>
        <time>2021-11-07T12:44:15.948Z</time>
      </trkpt>
      <trkpt lat="47.545973" lon="7.920313">
        <ele>290.326819</ele>
        <time>2021-11-07T12:44:20.418Z</time>
      </trkpt>
      <trkpt lat="47.546128" lon="7.919617">
        <ele>290.088397</ele>
        <time>2021-11-07T12:44:27.659Z</time>
      </trkpt>
      <trkpt lat="47.546262" lon="7.919081">
        <ele>289.899641</ele>
        <time>2021-11-07T12:44:33.707Z</time>
      </trkpt>
      <trkpt lat="47.546821" lon="7.916867">
        <ele>289.069361</ele>
        <time>2021-11-07T12:44:54.375Z</time>
      </trkpt>
      <trkpt lat="47.547032" lon="7.916218">
        <ele>288.925513</ele>
        <time>2021-11-07T12:45:00.683Z</time>
      </trkpt>
      <trkpt lat="47.547091" lon="7.916039">
        <ele>288.896734</ele>
        <time>2021-11-07T12:45:02.457Z</time>
      </trkpt>
      <trkpt lat="47.547113" lon="7.915971">
        <ele>288.885840</ele>
        <time>2021-11-07T12:45:03.047Z</time>
      </trkpt>
      <trkpt lat="47.547423" lon="7.915080">
        <ele>288.741021</ele>
        <time>2021-11-07T12:45:12.534Z</time>
      </trkpt>
      <trkpt lat="47.547994" lon="7.913433">
        <ele>289.104936</ele>
        <time>2021-11-07T12:45:32.238Z</time>
      </trkpt>
      <trkpt lat="47.548027" lon="7.913334">
        <ele>289.159275</ele>
        <time>2021-11-07T12:45:33.598Z</time>
      </trkpt>
      <trkpt lat="47.548412" lon="7.912168">
        <ele>289.798089</ele>
        <time>2021-11-07T12:45:50.001Z</time>
      </trkpt>
      <trkpt lat="47.549012" lon="7.910340">
        <ele>291.314199</ele>
        <time>2021-11-07T12:46:16.980Z</time>
      </trkpt>
      <trkpt lat="47.549102" lon="7.910058">
        <ele>291.558699</ele>
        <time>2021-11-07T12:46:21.096Z</time>
      </trkpt>
      <trkpt lat="47.549195" lon="7.909756">
        <ele>291.818884</ele>
        <time>2021-11-07T12:46:25.405Z</time>
      </trkpt>
      <trkpt lat="47.549288" lon="7.909447">
        <ele>292.123392</ele>
        <time>2021-11-07T12:46:29.773Z</time>
      </trkpt>
      <trkpt lat="47.549520" lon="7.908678">
        <ele>293.170558</ele>
        <time>2021-11-07T12:46:40.690Z</time>
      </trkpt>
      <trkpt lat="47.549539" lon="7.908625">
        <ele>293.245163</ele>
        <time>2021-11-07T12:46:41.428Z</time>
      </trkpt>
      <trkpt lat="47.550497" lon="7.905558">
        <ele>298.643457</ele>
        <time>2021-11-07T12:47:36.298Z</time>
      </trkpt>
      <trkpt lat="47.550283" lon="7.905413">
        <ele>299.321991</ele>
        <time>2021-11-07T12:47:44.525Z</time>
      </trkpt>
      <trkpt lat="47.550067" lon="7.905245">
        <ele>300.025431</ele>
        <time>2021-11-07T12:47:53.150Z</time>
      </trkpt>
      <trkpt lat="47.549977" lon="7.905205">
        <ele>300.296370</ele>
        <time>2021-11-07T12:47:56.537Z</time>
      </trkpt>
      <trkpt lat="47.549867" lon="7.905155">
        <ele>300.665124</ele>
        <time>2021-11-07T12:48:00.779Z</time>
      </trkpt>
      <trkpt lat="47.549868" lon="7.905010">
        <ele>301.040602</ele>
        <time>2021-11-07T12:48:04.184Z</time>
      </trkpt>
      <trkpt lat="47.550025" lon="7.904774">
        <ele>301.898630</ele>
        <time>2021-11-07T12:48:12.360Z</time>
      </trkpt>
      <trkpt lat="47.550302" lon="7.904164">
        <ele>303.802345</ele>
        <time>2021-11-07T12:48:30.634Z</time>
      </trkpt>
      <trkpt lat="47.550498" lon="7.903445">
        <ele>305.810196</ele>
        <time>2021-11-07T12:48:50.270Z</time>
      </trkpt>
      <trkpt lat="47.550688" lon="7.902451">
        <ele>308.502254</ele>
        <time>2021-11-07T12:49:12.754Z</time>
      </trkpt>
      <trkpt lat="47.550757" lon="7.901591">
        <ele>310.780501</ele>
        <time>2021-11-07T12:49:32.551Z</time>
      </trkpt>
      <trkpt lat="47.550769" lon="7.901362">
        <ele>311.384722</ele>
        <time>2021-11-07T12:49:38.458Z</time>
      </trkpt>
      <trkpt lat="47.550801" lon="7.900244">
        <ele>314.328377</ele>
        <time>2021-11-07T12:50:02.856Z</time>
      </trkpt>
      <trkpt lat="47.550819" lon="7.898109">
        <ele>320.006286</ele>
        <time>2021-11-07T12:50:49.896Z</time>
      </trkpt>
      <trkpt lat="47.550648" lon="7.896481">
        <ele>322.737046</ele>
        <time>2021-11-07T12:51:17.551Z</time>
      </trkpt>
      <trkpt lat="47.550639" lon="7.896345">
        <ele>322.891632</ele>
        <time>2021-11-07T12:51:19.926Z</time>
      </trkpt>
      <trkpt lat="47.550660" lon="7.896255">
        <ele>322.999355</ele>
        <time>2021-11-07T12:51:20.727Z</time>
      </trkpt>
      <trkpt lat="47.550838" lon="7.895509">
        <ele>323.894438</ele>
        <time>2021-11-07T12:51:30.895Z</time>
      </trkpt>
      <trkpt lat="47.550878" lon="7.895158">
        <ele>324.297120</ele>
        <time>2021-11-07T12:51:34.957Z</time>
      </trkpt>
      <trkpt lat="47.550908" lon="7.894308">
        <ele>325.427836</ele>
        <time>2021-11-07T12:51:45.429Z</time>
      </trkpt>
      <trkpt lat="47.550892" lon="7.893176">
        <ele>327.002979</ele>
        <time>2021-11-07T12:52:00.147Z</time>
      </trkpt>
      <trkpt lat="47.550904" lon="7.891725">
        <ele>330.350102</ele>
        <time>2021-11-07T12:52:29.909Z</time>
      </trkpt>
      <trkpt lat="47.550915" lon="7.890600">
        <ele>334.564345</ele>
        <time>2021-11-07T12:52:58.749Z</time>
      </trkpt>
      <trkpt lat="47.550833" lon="7.889069">
        <ele>340.539008</ele>
        <time>2021-11-07T12:53:41.383Z</time>
      </trkpt>
      <trkpt lat="47.550831" lon="7.888611">
        <ele>342.436122</ele>
        <time>2021-11-07T12:53:53.953Z</time>
      </trkpt>
      <trkpt lat="47.550789" lon="7.887816">
        <ele>345.739152</ele>
        <time>2021-11-07T12:54:14.565Z</time>
      </trkpt>
      <trkpt lat="47.550758" lon="7.887295">
        <ele>347.905549</ele>
        <time>2021-11-07T12:54:28.386Z</time>
      </trkpt>
      <trkpt lat="47.550677" lon="7.886476">
        <ele>351.008491</ele>
        <time>2021-11-07T12:54:49.875Z</time>
      </trkpt>
      <trkpt lat="47.550548" lon="7.885799">
        <ele>353.465516</ele>
        <time>2021-11-07T12:55:07.078Z</time>
      </trkpt>
      <trkpt lat="47.550391" lon="7.885109">
        <ele>356.008792</ele>
        <time>2021-11-07T12:55:24.715Z</time>
      </trkpt>
      <trkpt lat="47.550332" lon="7.884727">
        <ele>357.377521</ele>
        <time>2021-11-07T12:55:33.406Z</time>
      </trkpt>
      <trkpt lat="47.550234" lon="7.883221">
        <ele>361.476113</ele>
        <time>2021-11-07T12:56:06.237Z</time>
      </trkpt>
      <trkpt lat="47.549927" lon="7.881490">
        <ele>365.994443</ele>
        <time>2021-11-07T12:56:38.501Z</time>
      </trkpt>
      <trkpt lat="47.549726" lon="7.880786">
        <ele>368.087529</ele>
        <time>2021-11-07T12:56:54.478Z</time>
      </trkpt>
      <trkpt lat="47.549327" lon="7.879547">
        <ele>371.846584</ele>
        <time>2021-11-07T12:57:24.262Z</time>
      </trkpt>
      <trkpt lat="47.549318" lon="7.879398">
        <ele>372.256214</ele>
        <time>2021-11-07T12:57:27.450Z</time>
      </trkpt>
      <trkpt lat="47.549140" lon="7.879391">
        <ele>372.877373</ele>
        <time>2021-11-07T12:57:34.320Z</time>
      </trkpt>
      <trkpt lat="47.548718" lon="7.879258">
        <ele>374.275554</ele>
        <time>2021-11-07T12:57:47.991Z</time>
      </trkpt>
      <trkpt lat="47.548422" lon="7.878959">
        <ele>375.436548</ele>
        <time>2021-11-07T12:57:58.638Z</time>
      </trkpt>
      <trkpt lat="47.548234" lon="7.878638">
        <ele>376.366172</ele>
        <time>2021-11-07T12:58:07.070Z</time>
      </trkpt>
      <trkpt lat="47.547992" lon="7.877974">
        <ele>378.016804</ele>
        <time>2021-11-07T12:58:20.167Z</time>
      </trkpt>
      <trkpt lat="47.547574" lon="7.876801">
        <ele>377.267646</ele>
        <time>2021-11-07T12:58:33.930Z</time>
      </trkpt>
      <trkpt lat="47.547126" lon="7.875801">
        <ele>376.226407</ele>
        <time>2021-11-07T12:58:42.713Z</time>
      </trkpt>
      <trkpt lat="47.546309" lon="7.874154">
        <ele>369.760445</ele>
        <time>2021-11-07T12:58:55.902Z</time>
      </trkpt>
      <trkpt lat="47.546135" lon="7.873859">
        <ele>368.384477</ele>
        <time>2021-11-07T12:58:58.284Z</time>
      </trkpt>
      <trkpt lat="47.546077" lon="7.873763">
        <ele>367.931959</ele>
        <time>2021-11-07T12:58:59.095Z</time>
      </trkpt>
      <trkpt lat="47.545934" lon="7.873549">
        <ele>366.874312</ele>
        <time>2021-11-07T12:59:00.899Z</time>
      </trkpt>
      <trkpt lat="47.545746" lon="7.873302">
        <ele>365.222831</ele>
        <time>2021-11-07T12:59:03.187Z</time>
      </trkpt>
      <trkpt lat="47.545515" lon="7.873015">
        <ele>363.148237</ele>
        <time>2021-11-07T12:59:05.886Z</time>
      </trkpt>
      <trkpt lat="47.545478" lon="7.872968">
        <ele>362.812848</ele>
        <time>2021-11-07T12:59:06.328Z</time>
      </trkpt>
      <trkpt lat="47.545375" lon="7.872836">
        <ele>361.875672</ele>
        <time>2021-11-07T12:59:07.521Z</time>
      </trkpt>
      <trkpt lat="47.545131" lon="7.872664">
        <ele>360.016237</ele>
        <time>2021-11-07T12:59:09.980Z</time>
      </trkpt>
      <trkpt lat="47.544883" lon="7.872555">
        <ele>358.236142</ele>
        <time>2021-11-07T12:59:12.303Z</time>
      </trkpt>
      <trkpt lat="47.544390" lon="7.872423">
        <ele>354.788676</ele>
        <time>2021-11-07T12:59:16.767Z</time>
      </trkpt>
      <trkpt lat="47.543332" lon="7.872237">
        <ele>348.744486</ele>
        <time>2021-11-07T12:59:26.534Z</time>
      </trkpt>
      <trkpt lat="47.543251" lon="7.872152">
        <ele>348.190750</ele>
        <time>2021-11-07T12:59:27.476Z</time>
      </trkpt>
      <trkpt lat="47.543233" lon="7.872082">
        <ele>347.908678</ele>
        <time>2021-11-07T12:59:27.896Z</time>
      </trkpt>
      <trkpt lat="47.543013" lon="7.872182">
        <ele>346.624947</ele>
        <time>2021-11-07T12:59:30.144Z</time>
      </trkpt>
      <trkpt lat="47.542919" lon="7.872226">
        <ele>346.075019</ele>
        <time>2021-11-07T12:59:31.070Z</time>
      </trkpt>
      <trkpt lat="47.542814" lon="7.872280">
        <ele>345.454989</ele>
        <time>2021-11-07T12:59:32.121Z</time>
      </trkpt>
      <trkpt lat="47.542714" lon="7.872334">
        <ele>344.861238</ele>
        <time>2021-11-07T12:59:33.204Z</time>
      </trkpt>
      <trkpt lat="47.542537" lon="7.872430">
        <ele>344.222766</ele>
        <time>2021-11-07T12:59:34.937Z</time>
      </trkpt>
      <trkpt lat="47.542436" lon="7.872494">
        <ele>344.222766</ele>
        <time>2021-11-07T12:59:36.241Z</time>
      </trkpt>
      <trkpt lat="47.542394" lon="7.872341">
        <ele>344.222766</ele>
        <time>2021-11-07T12:59:37.326Z</time>
      </trkpt>
      <trkpt lat="47.542218" lon="7.871866">
        <ele>344.222766</ele>
        <time>2021-11-07T12:59:40.984Z</time>
      </trkpt>
      <trkpt lat="47.542091" lon="7.871721">
        <ele>344.222766</ele>
        <time>2021-11-07T12:59:42.500Z</time>
      </trkpt>
      <trkpt lat="47.542067" lon="7.871664">
        <ele>344.222766</ele>
        <time>2021-11-07T12:59:43.195Z</time>
      </trkpt>
      <trkpt lat="47.542039" lon="7.871556">
        <ele>344.222766</ele>
        <time>2021-11-07T12:59:44.077Z</time>
      </trkpt>
      <trkpt lat="47.542039" lon="7.871556">
        <ele>344.222766</ele>
        <time>2021-11-07T12:59:44.078Z</time>
      </trkpt>
    </trkseg>
  </trk>
</gpx>